Data for 10/14/2009

Time Sea-Level Adjusted Pressure Absolute Pressure Temperature Relative Humidity Dew Point Precipitation   
(mb) (inHg) (mb) (inHg) (C) (F) (%) (C) (F) (mm) (in)
00:01 1010 29.83 839 24.78 -0.6 30.9 78 -3.9 24.9 -0.219 -0.009
00:02 1010 29.83 839 24.78 -0.7 30.7 79 -3.9 25 -0.309 -0.012
00:03 1010 29.83 839 24.78 -0.8 30.6 79 -4 24.9 -0.361 -0.014
00:04 1010 29.83 839 24.78 -0.8 30.6 79 -4 24.8 -0.373 -0.015
00:05 1010 29.83 839 24.78 -0.8 30.6 80 -3.9 25 -0.401 -0.016
00:06 1010 29.83 839 24.78 -0.8 30.5 79 -4 24.8 -0.452 -0.018
00:07 1010 29.83 839 24.78 -0.9 30.4 79 -4 24.8 -0.542 -0.021
00:08 1010 29.83 839 24.78 -1 30.3 80 -4.1 24.7 -0.553 -0.022
00:09 1010 29.83 839 24.78 -1 30.1 80 -4.1 24.7 -0.604 -0.024
00:10 1010 29.83 839 24.78 -1 30.2 80 -4.1 24.6 -0.604 -0.024
00:11 1010 29.83 839 24.78 -1 30.1 80 -4.1 24.6 -0.672 -0.026
00:12 1010 29.83 839 24.78 -1.1 30.1 80 -4.2 24.5 -0.683 -0.027
00:13 1010 29.83 839 24.78 -1.1 30 80 -4.1 24.7 -0.7 -0.028
00:14 1010 29.83 839 24.78 -1.1 30 81 -4.1 24.7 -0.711 -0.028
00:15 1010 29.83 839 24.78 -1.2 29.9 81 -4.1 24.6 -0.7 -0.028
00:16 1010 29.83 839 24.78 -1.1 29.9 80 -4.1 24.6 -0.734 -0.029
00:17 1010 29.83 839 24.78 -1.2 29.9 80 -4.2 24.5 -0.751 -0.03
00:18 1010 29.83 839 24.78 -1.2 29.9 80 -4.1 24.6 -0.756 -0.03
00:19 1010 29.83 839 24.78 -1.2 29.9 80 -4.1 24.6 -0.762 -0.03
00:20 1010 29.83 839 24.78 -1.1 30 80 -4.1 24.6 -0.728 -0.029
00:21 1010 29.83 839 24.78 -1.1 30 80 -4.1 24.5 -0.699 -0.028
00:22 1010 29.83 839 24.78 -1.1 30.1 80 -4.1 24.6 -0.665 -0.026
00:23 1010 29.83 839 24.78 -1.1 30 80 -4.2 24.5 -0.671 -0.026
00:24 1010 29.83 839 24.78 -1.1 30.1 80 -4.2 24.5 -0.671 -0.026
00:25 1010 29.83 839 24.78 -1.1 30.1 80 -4.1 24.6 -0.643 -0.025
00:26 1010 29.83 839 24.78 -1.1 30.1 80 -4.1 24.6 -0.66 -0.026
00:27 1010 29.83 839 24.78 -1.1 30.1 80 -4.1 24.7 -0.66 -0.026
00:28 1010 29.83 839 24.78 -1.1 30.1 80 -4.1 24.6 -0.699 -0.028
00:29 1010 29.83 839 24.78 -1.1 30.1 80 -4 24.8 -0.665 -0.026
00:30 1010 29.83 839 24.78 -1 30.2 80 -4.1 24.7 -0.648 -0.026
00:31 1009 29.8 839 24.78 -1 30.1 80 -4 24.8 -0.603 -0.024
00:32 1009 29.8 839 24.78 -1 30.1 80 -4.1 24.6 -0.625 -0.025
00:33 1009 29.8 839 24.78 -1 30.1 80 -4.1 24.5 -0.62 -0.024
00:34 1009 29.8 839 24.78 -1 30.1 79 -4.1 24.5 -0.654 -0.026
00:35 1009 29.8 839 24.78 -1 30.1 80 -4.1 24.6 -0.625 -0.025
00:36 1009 29.8 839 24.78 -1.1 30.1 80 -4 24.7 -0.625 -0.025
00:37 1009 29.8 839 24.78 -1.1 30.1 80 -4.1 24.6 -0.659 -0.026
00:38 1010 29.83 839 24.78 -1 30.1 80 -4.1 24.7 -0.648 -0.026
00:39 1010 29.83 839 24.78 -1 30.1 80 -4.1 24.7 -0.631 -0.025
00:40 1010 29.83 839 24.78 -1 30.1 80 -4 24.8 -0.625 -0.025
00:41 1010 29.83 839 24.78 -1 30.2 80 -4 24.8 -0.631 -0.025
00:42 1010 29.83 839 24.78 -1 30.2 80 -4 24.7 -0.614 -0.024
00:43 1010 29.83 839 24.78 -1 30.2 80 -4.1 24.6 -0.58 -0.023
00:44 1010 29.83 839 24.78 -1 30.2 80 -4 24.8 -0.597 -0.024
00:45 1010 29.83 839 24.78 -1 30.2 80 -4 24.8 -0.574 -0.023
00:46 1010 29.83 839 24.78 -1 30.2 79 -4.1 24.6 -0.586 -0.023
00:47 1010 29.83 839 24.78 -1 30.2 80 -4 24.7 -0.586 -0.023
00:48 1010 29.83 839 24.78 -1.1 30.1 80 -4 24.8 -0.614 -0.024
00:49 1010 29.83 839 24.78 -1 30.1 80 -4 24.8 -0.608 -0.024
00:50 1009 29.8 839 24.78 -1 30.2 80 -4 24.7 -0.591 -0.023
00:51 1009 29.8 839 24.78 -1 30.2 80 -4 24.8 -0.591 -0.023
00:52 1009 29.8 839 24.78 -1 30.2 80 -4 24.8 -0.58 -0.023
00:53 1009 29.8 839 24.78 -1 30.2 80 -4 24.8 -0.574 -0.023
00:54 1009 29.8 839 24.78 -1 30.3 80 -4 24.8 -0.58 -0.023
00:55 1009 29.8 839 24.78 -0.9 30.3 81 -3.9 25 -0.506 -0.02
00:56 1009 29.8 839 24.78 -0.9 30.4 79 -4 24.8 -0.427 -0.017
00:57 1009 29.8 839 24.78 -0.8 30.6 78 -4 24.7 -0.319 -0.013
00:58 1009 29.8 839 24.78 -0.7 30.7 78 -4 24.8 -0.314 -0.012
00:59 1009 29.8 839 24.78 -0.7 30.7 78 -4.1 24.7 -0.314 -0.012
01:00 1009 29.8 839 24.78 -0.7 30.7 78 -4 24.7 -0.359 -0.014
01:01 1009 29.8 839 24.78 -0.8 30.6 79 -4 24.9 -0.376 -0.015
01:02 1009 29.8 839 24.78 -0.8 30.6 79 -3.9 24.9 -0.42 -0.017
01:03 1009 29.8 838 24.75 -0.8 30.5 79 -3.9 24.9 -0.46 -0.018
01:04 1009 29.8 838 24.75 -0.8 30.5 79 -4 24.9 -0.431 -0.017
01:05 1009 29.8 838 24.75 -0.8 30.5 80 -3.9 24.9 -0.426 -0.017
01:06 1009 29.8 838 24.75 -0.8 30.5 80 -3.9 24.9 -0.392 -0.015
01:07 1009 29.8 838 24.75 -0.8 30.6 79 -4 24.8 -0.386 -0.015
01:08 1009 29.8 838 24.75 -0.7 30.7 80 -3.8 25.1 -0.324 -0.013
01:09 1009 29.8 838 24.75 -0.7 30.7 79 -4 24.8 -0.29 -0.011
01:10 1009 29.8 838 24.75 -0.7 30.8 78 -4 24.8 -0.239 -0.009
01:11 1009 29.8 838 24.75 -0.7 30.8 78 -4.1 24.7 -0.279 -0.011
01:12 1009 29.8 838 24.75 -0.8 30.6 79 -4 24.8 -0.358 -0.014
01:13 1009 29.8 839 24.78 -0.8 30.6 79 -4.1 24.7 -0.421 -0.017
01:14 1009 29.8 838 24.75 -0.9 30.4 79 -4.1 24.6 -0.438 -0.017
01:15 1009 29.8 838 24.75 -0.8 30.6 78 -4.1 24.5 -0.404 -0.016
01:16 1009 29.8 838 24.75 -0.8 30.6 78 -4.1 24.7 -0.33 -0.013
01:17 1009 29.8 838 24.75 -0.8 30.6 78 -4.1 24.6 -0.353 -0.014
01:18 1009 29.8 838 24.75 -0.7 30.7 79 -4 24.8 -0.347 -0.014
01:19 1009 29.8 839 24.78 -0.7 30.7 79 -4 24.9 -0.324 -0.013
01:20 1009 29.8 839 24.78 -0.7 30.7 79 -4 24.9 -0.267 -0.011
01:21 1009 29.8 839 24.78 -0.6 30.8 78 -3.9 24.9 -0.25 -0.01
01:22 1009 29.8 838 24.75 -0.7 30.8 78 -4 24.9 -0.267 -0.011
01:23 1009 29.8 838 24.75 -0.6 30.8 78 -4.1 24.7 -0.222 -0.009
01:24 1009 29.8 838 24.75 -0.6 30.9 78 -4 24.9 -0.159 -0.006
01:25 1009 29.8 839 24.78 -0.6 31 78 -4 24.9 -0.126 -0.005
01:26 1009 29.8 839 24.78 -0.5 31 78 -4 24.8 -0.126 -0.005
01:27 1009 29.8 839 24.78 -0.5 31 78 -3.9 24.9 -0.165 -0.006
01:28 1009 29.8 839 24.78 -0.6 30.9 78 -4 24.8 -0.16 -0.006
01:29 1009 29.8 839 24.78 -0.6 30.9 78 -4 24.7 -0.194 -0.008
01:30 1009 29.8 839 24.78 -0.6 30.9 78 -4.1 24.7 -0.222 -0.009
01:31 1009 29.8 839 24.78 -0.6 30.9 78 -4.1 24.7 -0.239 -0.009
01:32 1009 29.8 839 24.78 -0.7 30.8 78 -3.9 24.9 -0.239 -0.009
01:33 1009 29.8 839 24.78 -0.7 30.8 79 -3.9 24.9 -0.245 -0.01
01:34 1010 29.83 839 24.78 -0.6 30.8 78 -4 24.8 -0.262 -0.01
01:35 1010 29.83 839 24.78 -0.6 30.9 78 -4.1 24.7 -0.206 -0.008
01:36 1009 29.8 839 24.78 -0.6 30.9 78 -4 24.9 -0.177 -0.007
01:37 1009 29.8 839 24.78 -0.6 30.9 78 -4 24.8 -0.143 -0.006
01:38 1009 29.8 839 24.78 -0.5 31 78 -3.9 24.9 -0.104 -0.004
01:39 1009 29.8 839 24.78 -0.5 31.1 78 -3.9 24.9 -0.092 -0.004
01:40 1009 29.8 839 24.78 -0.5 31 78 -4 24.9 -0.104 -0.004
01:41 1009 29.8 839 24.78 -0.5 31.1 77 -4 24.8 -0.076 -0.003
01:42 1009 29.8 839 24.78 -0.5 31.1 77 -4 24.8 -0.076 -0.003
01:43 1009 29.8 838 24.75 -0.5 31.1 77 -4 24.8 -0.098 -0.004
01:44 1009 29.8 838 24.75 -0.5 31.1 77 -4 24.8 -0.081 -0.003
01:45 1009 29.8 839 24.78 -0.5 31.1 77 -4 24.8 -0.104 -0.004
01:46 1009 29.8 839 24.78 -0.5 31.1 78 -3.9 25.1 -0.093 -0.004
01:47 1009 29.8 839 24.78 -0.5 31.1 78 -3.9 25.1 -0.093 -0.004
01:48 1009 29.8 839 24.78 -0.5 31.1 78 -3.9 25 -0.081 -0.003
01:49 1009 29.8 838 24.75 -0.5 31.1 78 -3.9 25 -0.144 -0.006
01:50 1009 29.8 838 24.75 -0.6 31 78 -3.9 24.9 -0.149 -0.006
01:51 1009 29.8 838 24.75 -0.6 31 78 -3.9 25 -0.189 -0.007
01:52 1009 29.8 838 24.75 -0.6 30.9 79 -3.9 25 -0.178 -0.007
01:53 1009 29.8 838 24.75 -0.6 31 79 -3.8 25.1 -0.172 -0.007
01:54 1009 29.8 838 24.75 -0.6 31 79 -3.9 25.1 -0.166 -0.007
01:55 1009 29.8 838 24.75 -0.5 31 79 -3.8 25.2 -0.131 -0.005
01:56 1009 29.8 838 24.75 -0.5 31.1 79 -3.8 25.2 -0.12 -0.005
01:57 1009 29.8 838 24.75 -0.5 31.1 79 -3.8 25.2 -0.143 -0.006
01:58 1009 29.8 838 24.75 -0.5 31.1 78 -3.8 25.1 -0.058 -0.002
01:59 1009 29.8 838 24.75 -0.4 31.2 79 -3.7 25.3 -0.001 -0
02:00 1009 29.8 838 24.75 -0.4 31.2 79 -3.7 25.3 0.027 0.001
02:01 1009 29.8 838 24.75 -0.4 31.3 79 -3.7 25.4 0.027 0.001
02:02 1009 29.8 838 24.75 -0.3 31.4 78 -3.7 25.4 0.067 0.003
02:03 1009 29.8 838 24.75 -0.3 31.4 78 -3.7 25.4 0.106 0.004
02:04 1009 29.8 838 24.75 -0.3 31.5 78 -3.6 25.5 0.134 0.005
02:05 1009 29.8 838 24.75 -0.2 31.6 78 -3.6 25.6 0.174 0.007
02:06 1009 29.8 838 24.75 -0.2 31.7 78 -3.6 25.6 0.276 0.011
02:07 1009 29.8 838 24.75 -0.1 31.8 78 -3.5 25.7 0.361 0.014
02:08 1009 29.8 838 24.75 0 32.1 77 -3.5 25.7 0.446 0.018
02:09 1009 29.8 838 24.75 0.1 32.2 77 -3.5 25.7 0.513 0.02
02:10 1009 29.8 838 24.75 0.2 32.3 77 -3.5 25.8 0.581 0.023
02:11 1009 29.8 838 24.75 0.2 32.4 77 -3.4 25.9 0.604 0.024
02:12 1009 29.8 838 24.75 0.2 32.3 77 -3.3 26 0.576 0.023
02:13 1009 29.8 838 24.75 0.2 32.3 78 -3.3 26.1 0.564 0.022
02:14 1009 29.8 838 24.75 0.1 32.2 78 -3.2 26.2 0.508 0.02
02:15 1009 29.8 838 24.75 0.1 32.2 78 -3.2 26.2 0.508 0.02
02:16 1009 29.8 838 24.75 0.1 32.1 78 -3.3 26.1 0.502 0.02
02:17 1009 29.8 838 24.75 0.1 32.1 78 -3.3 26 0.491 0.019
02:18 1009 29.8 838 24.75 0 32.1 78 -3.4 26 0.468 0.018
02:19 1009 29.8 838 24.75 0.1 32.1 78 -3.3 26.1 0.451 0.018
02:20 1009 29.8 838 24.75 0.1 32.1 78 -3.3 26 0.457 0.018
02:21 1009 29.8 838 24.75 0 32 78 -3.3 26 0.411 0.016
02:22 1009 29.8 838 24.75 0 32 78 -3.4 25.9 0.406 0.016
02:23 1009 29.8 838 24.75 0 32.1 78 -3.3 26 0.434 0.017
02:24 1009 29.8 838 24.75 0 32 78 -3.4 25.9 0.394 0.016
02:25 1009 29.8 838 24.75 -0 32 77 -3.5 25.7 0.406 0.016
02:26 1009 29.8 838 24.75 0 32 77 -3.5 25.7 0.434 0.017
02:27 1009 29.8 838 24.75 0 32.1 78 -3.4 25.8 0.468 0.018
02:28 1009 29.8 838 24.75 0 32 78 -3.4 25.9 0.434 0.017
02:29 1009 29.8 838 24.75 -0.1 31.9 79 -3.3 26.1 0.326 0.013
02:30 1009 29.8 838 24.75 -0.2 31.6 80 -3.3 26.1 0.196 0.008
02:31 1009 29.8 838 24.75 -0.3 31.4 80 -3.3 26 0.094 0.004
02:32 1009 29.8 838 24.75 -0.4 31.3 81 -3.3 26 0.06 0.002
02:33 1009 29.8 838 24.75 -0.4 31.2 81 -3.3 26 0.009 0
02:34 1009 29.8 838 24.75 -0.5 31.1 81 -3.3 26.1 -0.025 -0.001
02:35 1009 29.8 838 24.75 -0.6 30.9 82 -3.3 26.1 -0.144 -0.006
02:36 1009 29.8 838 24.75 -0.6 30.9 82 -3.3 26.1 -0.155 -0.006
02:37 1009 29.8 838 24.75 -0.6 30.9 82 -3.2 26.2 -0.155 -0.006
02:38 1009 29.8 838 24.75 -0.6 30.8 82 -3.3 26.1 -0.189 -0.007
02:39 1009 29.8 838 24.75 -0.6 30.9 82 -3.3 26 -0.195 -0.008
02:40 1009 29.8 838 24.75 -0.6 30.9 82 -3.3 26.1 -0.161 -0.006
02:41 1009 29.8 838 24.75 -0.6 30.9 82 -3.3 26.1 -0.178 -0.007
02:42 1009 29.8 838 24.75 -0.6 30.9 82 -3.3 26.1 -0.161 -0.006
02:43 1009 29.8 838 24.75 -0.6 30.9 83 -3.2 26.2 -0.178 -0.007
02:44 1009 29.8 838 24.75 -0.6 30.8 83 -3.2 26.3 -0.223 -0.009
02:45 1009 29.8 838 24.75 -0.7 30.8 83 -3.2 26.3 -0.234 -0.009
02:46 1009 29.8 838 24.75 -0.7 30.7 83 -3.2 26.2 -0.291 -0.011
02:47 1009 29.8 838 24.75 -0.7 30.7 83 -3.2 26.3 -0.285 -0.011
02:48 1009 29.8 838 24.75 -0.7 30.7 84 -3.1 26.4 -0.263 -0.01
02:49 1009 29.8 838 24.75 -0.7 30.7 84 -3.1 26.4 -0.308 -0.012
02:50 1009 29.8 838 24.75 -0.8 30.6 84 -3.1 26.4 -0.365 -0.014
02:51 1009 29.8 838 24.75 -0.8 30.5 85 -3.1 26.4 -0.421 -0.017
02:52 1009 29.8 838 24.75 -0.9 30.3 85 -3.2 26.3 -0.489 -0.019
02:53 1009 29.8 838 24.75 -1 30.2 85 -3.1 26.3 -0.512 -0.02
02:54 1009 29.8 838 24.75 -1 30.2 86 -3.1 26.4 -0.597 -0.024
02:55 1009 29.8 838 24.75 -1.1 30.1 86 -3.1 26.3 -0.625 -0.025
02:56 1009 29.8 838 24.75 -1.1 30 86 -3.2 26.3 -0.653 -0.026
02:57 1009 29.8 838 24.75 -1.2 29.9 86 -3.2 26.2 -0.676 -0.027
02:58 1009 29.8 838 24.75 -1.2 29.9 86 -3.1 26.3 -0.687 -0.027
02:59 1009 29.8 838 24.75 -1.1 29.9 87 -3.1 26.4 -0.727 -0.029
03:00 1009 29.8 838 24.75 -1.2 29.9 86 -3.2 26.3 -0.704 -0.028
03:01 1009 29.8 838 24.75 -1.2 29.8 87 -3.2 26.3 -0.704 -0.028
03:02 1009 29.8 838 24.75 -1.2 29.9 87 -3.1 26.4 -0.733 -0.029
03:03 1009 29.8 838 24.75 -1.1 29.9 86 -3.1 26.4 -0.693 -0.027
03:04 1009 29.8 838 24.75 -1.1 30 86 -3.1 26.3 -0.653 -0.026
03:05 1009 29.8 838 24.75 -1.1 30 86 -3.2 26.3 -0.608 -0.024
03:06 1009 29.8 838 24.75 -1 30.2 86 -3.1 26.4 -0.574 -0.023
03:07 1009 29.8 838 24.75 -1 30.3 85 -3.1 26.4 -0.523 -0.021
03:08 1009 29.8 838 24.75 -0.9 30.3 85 -3.2 26.3 -0.484 -0.019
03:09 1009 29.8 838 24.75 -0.9 30.4 85 -3.1 26.5 -0.495 -0.019
03:10 1009 29.8 838 24.75 -0.9 30.4 85 -3.1 26.4 -0.461 -0.018
03:11 1009 29.8 838 24.75 -0.9 30.4 85 -3.1 26.3 -0.416 -0.016
03:12 1009 29.8 838 24.75 -0.9 30.4 85 -3.1 26.4 -0.438 -0.017
03:13 1009 29.8 838 24.75 -0.8 30.5 85 -3 26.5 -0.433 -0.017
03:14 1009 29.8 838 24.75 -0.9 30.5 85 -3 26.6 -0.467 -0.018
03:15 1009 29.8 838 24.75 -0.9 30.4 85 -3.1 26.5 -0.467 -0.018
03:16 1009 29.8 838 24.75 -0.9 30.4 85 -3 26.5 -0.478 -0.019
03:17 1009 29.8 838 24.75 -0.9 30.4 85 -3.1 26.5 -0.472 -0.019
03:18 1009 29.8 838 24.75 -0.9 30.4 85 -3 26.5 -0.467 -0.018
03:19 1009 29.8 838 24.75 -0.9 30.4 86 -3 26.6 -0.455 -0.018
03:20 1009 29.8 838 24.75 -0.9 30.4 85 -3 26.5 -0.455 -0.018
03:21 1009 29.8 838 24.75 -0.9 30.5 85 -3 26.6 -0.461 -0.018
03:22 1009 29.8 838 24.75 -0.9 30.4 85 -3 26.5 -0.455 -0.018
03:23 1009 29.8 838 24.75 -0.9 30.5 85 -3 26.5 -0.45 -0.018
03:24 1009 29.8 838 24.75 -0.9 30.4 85 -3.1 26.5 -0.472 -0.019
03:25 1009 29.8 838 24.75 -0.9 30.4 85 -3.1 26.5 -0.478 -0.019
03:26 1009 29.8 838 24.75 -0.9 30.4 85 -3.1 26.5 -0.472 -0.019
03:27 1009 29.8 838 24.75 -0.9 30.4 85 -3 26.5 -0.467 -0.018
03:28 1009 29.8 838 24.75 -0.9 30.4 85 -3.1 26.5 -0.506 -0.02
03:29 1009 29.8 838 24.75 -0.9 30.3 85 -3.1 26.5 -0.552 -0.022
03:30 1009 29.8 838 24.75 -1 30.2 85 -3.1 26.3 -0.557 -0.022
03:31 1009 29.8 838 24.75 -1 30.2 85 -3.1 26.3 -0.563 -0.022
03:32 1009 29.8 838 24.75 -1 30.1 85 -3.2 26.2 -0.597 -0.024
03:33 1008 29.77 838 24.75 -1 30.2 85 -3.2 26.2 -0.58 -0.023
03:34 1008 29.77 837 24.72 -1 30.2 85 -3.2 26.2 -0.608 -0.024
03:35 1008 29.77 837 24.72 -1 30.2 85 -3.2 26.2 -0.585 -0.023
03:36 1008 29.77 837 24.72 -1 30.2 85 -3.2 26.2 -0.602 -0.024
03:37 1008 29.77 837 24.72 -1 30.2 85 -3.3 26.1 -0.597 -0.024
03:38 1008 29.77 837 24.72 -1 30.2 85 -3.2 26.2 -0.574 -0.023
03:39 1008 29.77 837 24.72 -1 30.2 85 -3.2 26.2 -0.591 -0.023
03:40 1008 29.77 837 24.72 -1 30.2 85 -3.2 26.3 -0.631 -0.025
03:41 1008 29.77 837 24.72 -1.1 30.1 86 -3.2 26.3 -0.614 -0.024
03:42 1007 29.74 837 24.72 -1.1 30.1 86 -3.2 26.3 -0.642 -0.025
03:43 1007 29.74 837 24.72 -1 30.1 85 -3.2 26.2 -0.614 -0.024
03:44 1008 29.77 837 24.72 -1 30.3 85 -3.2 26.3 -0.568 -0.022
03:45 1008 29.77 837 24.72 -0.9 30.4 84 -3.2 26.2 -0.489 -0.019
03:46 1008 29.77 837 24.72 -0.8 30.5 84 -3.2 26.2 -0.416 -0.016
03:47 1008 29.77 837 24.72 -0.8 30.6 83 -3.2 26.2 -0.404 -0.016
03:48 1008 29.77 837 24.72 -0.8 30.6 83 -3.3 26.1 -0.37 -0.015
03:49 1008 29.77 837 24.72 -0.7 30.7 83 -3.2 26.2 -0.376 -0.015
03:50 1008 29.77 838 24.75 -0.7 30.7 83 -3.2 26.2 -0.365 -0.014
03:51 1009 29.8 838 24.75 -0.7 30.8 83 -3.2 26.2 -0.325 -0.013
03:52 1009 29.8 838 24.75 -0.7 30.8 82 -3.3 26 -0.319 -0.013
03:53 1009 29.8 838 24.75 -0.7 30.8 82 -3.3 26 -0.257 -0.01
03:54 1009 29.8 838 24.75 -0.7 30.8 82 -3.3 26 -0.268 -0.011
03:55 1009 29.8 838 24.75 -0.7 30.8 83 -3.2 26.3 -0.274 -0.011
03:56 1009 29.8 838 24.75 -0.7 30.7 84 -3.1 26.3 -0.359 -0.014
03:57 1009 29.8 838 24.75 -0.8 30.6 84 -3.2 26.3 -0.365 -0.014
03:58 1009 29.8 838 24.75 -0.8 30.5 84 -3.2 26.3 -0.404 -0.016
03:59 1008 29.77 838 24.75 -0.8 30.6 84 -3.2 26.2 -0.404 -0.016
04:00 1008 29.77 837 24.72 -0.8 30.5 83 -3.3 26.1 -0.387 -0.015
04:01 1008 29.77 837 24.72 -0.8 30.5 83 -3.3 26.1 -0.399 -0.016
04:02 1008 29.77 837 24.72 -0.8 30.6 83 -3.3 26.1 -0.41 -0.016
04:03 1008 29.77 838 24.75 -0.8 30.6 84 -3.2 26.2 -0.382 -0.015
04:04 1008 29.77 838 24.75 -0.8 30.5 84 -3.2 26.2 -0.416 -0.016
04:05 1008 29.77 838 24.75 -0.8 30.5 83 -3.3 26 -0.455 -0.018
04:06 1008 29.77 837 24.72 -0.8 30.6 83 -3.2 26.2 -0.404 -0.016
04:07 1008 29.77 837 24.72 -0.8 30.5 83 -3.3 26.1 -0.421 -0.017
04:08 1008 29.77 837 24.72 -0.8 30.6 84 -3.2 26.2 -0.45 -0.018
04:09 1008 29.77 837 24.72 -0.8 30.5 83 -3.3 26.1 -0.45 -0.018
04:10 1008 29.77 838 24.75 -0.9 30.4 84 -3.3 26.1 -0.461 -0.018
04:11 1008 29.77 838 24.75 -0.9 30.4 83 -3.3 26 -0.438 -0.017
04:12 1008 29.77 838 24.75 -0.9 30.5 83 -3.3 26 -0.455 -0.018
04:13 1008 29.77 838 24.75 -0.9 30.4 83 -3.3 26 -0.461 -0.018
04:14 1008 29.77 837 24.72 -0.9 30.4 84 -3.3 26 -0.506 -0.02
04:15 1008 29.77 837 24.72 -0.9 30.4 84 -3.3 26 -0.523 -0.021
04:16 1008 29.77 837 24.72 -1 30.3 84 -3.4 25.9 -0.563 -0.022
04:17 1008 29.77 838 24.75 -1 30.2 84 -3.4 25.9 -0.563 -0.022
04:18 1008 29.77 838 24.75 -1 30.2 84 -3.4 25.9 -0.619 -0.024
04:19 1008 29.77 838 24.75 -1.1 30 85 -3.3 26 -0.687 -0.027
04:20 1008 29.77 838 24.75 -1.2 29.8 86 -3.3 26.1 -0.778 -0.031
04:21 1009 29.8 838 24.75 -1.2 29.8 86 -3.3 26.1 -0.789 -0.031
04:22 1009 29.8 838 24.75 -1.2 29.9 86 -3.3 26.1 -0.738 -0.029
04:23 1009 29.8 838 24.75 -1.1 30 86 -3.2 26.2 -0.699 -0.028
04:24 1009 29.8 838 24.75 -1.1 30 86 -3.2 26.2 -0.686 -0.027
04:25 1009 29.8 838 24.75 -1.1 30 86 -3.2 26.3 -0.675 -0.027
04:26 1009 29.8 838 24.75 -1.2 29.9 87 -3.1 26.5 -0.748 -0.029
04:27 1009 29.8 838 24.75 -1.2 29.8 87 -3.1 26.5 -0.794 -0.031
04:28 1009 29.8 838 24.75 -1.3 29.6 88 -3.1 26.5 -0.805 -0.032
04:29 1009 29.8 838 24.75 -1.3 29.7 88 -3 26.6 -0.873 -0.034
04:30 1009 29.8 838 24.75 -1.3 29.6 89 -3 26.6 -0.889 -0.035
04:31 1009 29.8 838 24.75 -1.4 29.5 89 -3 26.6 -0.895 -0.035
04:32 1009 29.8 838 24.75 -1.4 29.5 89 -2.9 26.8 -0.912 -0.036
04:33 1009 29.8 838 24.75 -1.3 29.6 89 -2.9 26.9 -0.911 -0.036
04:34 1009 29.8 838 24.75 -1.4 29.5 90 -2.9 26.8 -0.939 -0.037
04:35 1009 29.8 838 24.75 -1.3 29.6 90 -2.8 26.9 -0.917 -0.036
04:36 1009 29.8 839 24.78 -1.4 29.5 90 -2.9 26.8 -0.883 -0.035
04:37 1009 29.8 839 24.78 -1.3 29.7 89 -2.9 26.9 -0.843 -0.033
04:38 1009 29.8 839 24.78 -1.3 29.7 89 -2.8 27 -0.815 -0.032
04:39 1009 29.8 839 24.78 -1.2 29.8 89 -2.8 26.9 -0.81 -0.032
04:40 1009 29.8 839 24.78 -1.2 29.8 89 -2.9 26.8 -0.782 -0.031
04:41 1009 29.8 839 24.78 -1.1 29.9 89 -2.8 27 -0.753 -0.03
04:42 1009 29.8 839 24.78 -1.2 29.9 88 -2.8 26.9 -0.741 -0.029
04:43 1010 29.83 839 24.78 -1.1 30 88 -2.8 27 -0.707 -0.028
04:44 1010 29.83 839 24.78 -1.1 30 88 -2.8 27 -0.724 -0.029
04:45 1010 29.83 839 24.78 -1.1 29.9 89 -2.8 27 -0.701 -0.028
04:46 1009 29.8 839 24.78 -1.1 30 89 -2.7 27.1 -0.718 -0.028
04:47 1010 29.83 839 24.78 -1.1 30 89 -2.8 27 -0.734 -0.029
04:48 1010 29.83 839 24.78 -1.2 29.9 89 -2.8 27 -0.768 -0.03
04:49 1009 29.8 839 24.78 -1.2 29.8 89 -2.8 27 -0.791 -0.031
04:50 1009 29.8 839 24.78 -1.2 29.8 89 -2.7 27.1 -0.807 -0.032
04:51 1010 29.83 839 24.78 -1.3 29.7 89 -2.8 26.9 -0.813 -0.032
04:52 1010 29.83 839 24.78 -1.3 29.7 89 -2.8 27 -0.847 -0.033
04:53 1009 29.8 839 24.78 -1.2 29.8 90 -2.7 27.1 -0.83 -0.033
04:54 1009 29.8 839 24.78 -1.3 29.7 90 -2.8 27 -0.841 -0.033
04:55 1010 29.83 839 24.78 -1.3 29.7 89 -2.8 27 -0.858 -0.034
04:56 1010 29.83 839 24.78 -1.3 29.7 90 -2.8 27 -0.863 -0.034
04:57 1009 29.8 839 24.78 -1.3 29.7 90 -2.8 27 -0.835 -0.033
04:58 1009 29.8 839 24.78 -1.3 29.7 90 -2.8 27 -0.846 -0.033
04:59 1009 29.8 839 24.78 -1.3 29.6 90 -2.8 26.9 -0.886 -0.035
05:00 1009 29.8 838 24.75 -1.3 29.6 90 -2.8 26.9 -0.92 -0.036
05:01 1009 29.8 838 24.75 -1.3 29.6 90 -2.8 27 -0.959 -0.038
05:02 1009 29.8 838 24.75 -1.4 29.5 90 -2.8 27 -0.959 -0.038
05:03 1009 29.8 838 24.75 -1.4 29.5 90 -2.8 27 -0.987 -0.039
05:04 1009 29.8 838 24.75 -1.5 29.4 90 -2.8 26.9 -1.033 -0.041
05:05 1009 29.8 838 24.75 -1.5 29.3 90 -2.9 26.9 -1.055 -0.042
05:06 1009 29.8 839 24.78 -1.5 29.2 91 -2.9 26.8 -1.106 -0.044
05:07 1009 29.8 839 24.78 -1.5 29.2 91 -2.9 26.8 -1.112 -0.044
05:08 1009 29.8 839 24.78 -1.6 29.2 91 -2.9 26.8 -1.163 -0.046
05:09 1009 29.8 839 24.78 -1.6 29.1 91 -2.9 26.8 -1.191 -0.047
05:10 1009 29.8 839 24.78 -1.6 29.1 91 -3 26.7 -1.231 -0.048
05:11 1009 29.8 839 24.78 -1.7 29 91 -2.9 26.7 -1.225 -0.048
05:12 1009 29.8 839 24.78 -1.7 29 91 -2.9 26.8 -1.236 -0.049
05:13 1009 29.8 838 24.75 -1.7 28.9 91 -3 26.6 -1.27 -0.05
05:14 1009 29.8 839 24.78 -1.7 28.9 91 -3 26.7 -1.281 -0.05
05:15 1009 29.8 839 24.78 -1.8 28.8 91 -3 26.6 -1.315 -0.052
05:16 1009 29.8 839 24.78 -1.8 28.8 92 -3 26.6 -1.355 -0.053
05:17 1009 29.8 839 24.78 -1.8 28.7 92 -3 26.6 -1.389 -0.055
05:18 1009 29.8 839 24.78 -1.8 28.7 92 -3 26.6 -1.423 -0.056
05:19 1009 29.8 838 24.75 -1.9 28.6 92 -3 26.6 -1.412 -0.056
05:20 1009 29.8 838 24.75 -1.9 28.7 92 -3 26.6 -1.445 -0.057
05:21 1009 29.8 838 24.75 -1.9 28.6 92 -3 26.6 -1.496 -0.059
05:22 1009 29.8 838 24.75 -1.9 28.5 92 -3.1 26.4 -1.496 -0.059
05:23 1009 29.8 838 24.75 -2 28.4 92 -3.2 26.3 -1.621 -0.064
05:24 1009 29.8 838 24.75 -2.1 28.2 92 -3.2 26.2 -1.689 -0.066
05:25 1009 29.8 838 24.75 -2.2 28.1 92 -3.2 26.2 -1.757 -0.069
05:26 1009 29.8 838 24.75 -2.2 28 92 -3.3 26 -1.825 -0.072
05:27 1009 29.8 838 24.75 -2.3 27.8 92 -3.4 25.9 -1.904 -0.075
05:28 1009 29.8 838 24.75 -2.4 27.7 93 -3.4 25.9 -1.938 -0.076
05:29 1009 29.8 838 24.75 -2.4 27.7 93 -3.3 26.1 -1.915 -0.075
05:30 1009 29.8 838 24.75 -2.3 27.8 94 -3.2 26.3 -1.91 -0.075
05:31 1009 29.8 838 24.75 -2.3 27.9 94 -3.1 26.4 -1.796 -0.071
05:32 1009 29.8 839 24.78 -2.2 28.1 94 -3 26.5 -1.728 -0.068
05:33 1009 29.8 839 24.78 -2.1 28.2 94 -3 26.6 -1.723 -0.068
05:34 1009 29.8 839 24.78 -2.1 28.3 93 -3 26.5 -1.627 -0.064
05:35 1010 29.83 839 24.78 -2.1 28.3 93 -3.1 26.5 -1.683 -0.066
05:36 1010 29.83 839 24.78 -2.1 28.3 93 -3.1 26.5 -1.683 -0.066
05:37 1010 29.83 839 24.78 -2.1 28.3 93 -3.1 26.5 -1.689 -0.066
05:38 1009 29.8 839 24.78 -2 28.3 93 -3.1 26.5 -1.627 -0.064
05:39 1009 29.8 839 24.78 -2.1 28.2 93 -3.1 26.4 -1.689 -0.066
05:40 1009 29.8 839 24.78 -2.1 28.2 93 -3.1 26.4 -1.677 -0.066
05:41 1009 29.8 839 24.78 -2.1 28.2 93 -3.1 26.4 -1.689 -0.066
05:42 1009 29.8 839 24.78 -2.2 28.1 93 -3.2 26.3 -1.734 -0.068
05:43 1009 29.8 838 24.75 -2.2 28 93 -3.2 26.2 -1.785 -0.07
05:44 1009 29.8 838 24.75 -2.2 28 93 -3.2 26.2 -1.842 -0.073
05:45 1009 29.8 838 24.75 -2.2 28 93 -3.1 26.3 -1.825 -0.072
05:46 1009 29.8 838 24.75 -2.2 28 94 -3.1 26.3 -1.813 -0.071
05:47 1009 29.8 839 24.78 -2.2 28 93 -3.1 26.3 -1.796 -0.071
05:48 1009 29.8 839 24.78 -2.2 28 92 -3.3 26.1 -1.825 -0.072
05:49 1009 29.8 839 24.78 -2.4 27.7 93 -3.4 25.9 -1.955 -0.077
05:50 1009 29.8 839 24.78 -2.5 27.6 93 -3.4 25.8 -2.023 -0.08
05:51 1009 29.8 839 24.78 -2.6 27.4 94 -3.4 25.8 -2.085 -0.082
05:52 1009 29.8 839 24.78 -2.5 27.4 94 -3.4 25.9 -2.114 -0.083
05:53 1010 29.83 839 24.78 -2.6 27.3 94 -3.4 25.9 -2.125 -0.084
05:54 1010 29.83 839 24.78 -2.6 27.4 94 -3.3 26 -2.131 -0.084
05:55 1009 29.8 839 24.78 -2.6 27.3 95 -3.3 26 -2.125 -0.084
05:56 1009 29.8 839 24.78 -2.5 27.5 95 -3.1 26.4 -2.012 -0.079
05:57 1009 29.8 839 24.78 -2.3 27.8 95 -3 26.5 -1.932 -0.076
05:58 1009 29.8 839 24.78 -2.4 27.7 94 -3.2 26.3 -1.927 -0.076
05:59 1009 29.8 838 24.75 -2.3 27.8 95 -3.1 26.5 -1.915 -0.075
06:00 1009 29.8 838 24.75 -2.3 27.9 95 -3 26.5 -1.887 -0.074
06:01 1009 29.8 838 24.75 -2.2 28 95 -3 26.6 -1.819 -0.072
06:02 1009 29.8 839 24.78 -2.2 28.1 94 -3 26.6 -1.768 -0.07
06:03 1009 29.8 839 24.78 -2.2 28.1 94 -3 26.6 -1.768 -0.07
06:04 1010 29.83 839 24.78 -2.2 28.1 94 -3 26.5 -1.723 -0.068
06:05 1010 29.83 839 24.78 -2.1 28.2 94 -3 26.6 -1.745 -0.069
06:06 1010 29.83 839 24.78 -2.1 28.2 94 -3 26.7 -1.757 -0.069
06:07 1010 29.83 839 24.78 -2.2 28.1 94 -3 26.5 -1.774 -0.07
06:08 1010 29.83 839 24.78 -2.2 28.1 94 -3 26.6 -1.74 -0.069
06:09 1010 29.83 839 24.78 -2.2 28.1 94 -3 26.6 -1.808 -0.071
06:10 1010 29.83 839 24.78 -2.2 28 94 -3 26.6 -1.751 -0.069
06:11 1010 29.83 839 24.78 -2.2 28.1 94 -2.9 26.7 -1.717 -0.068
06:12 1010 29.83 839 24.78 -2.2 28.1 94 -3 26.7 -1.683 -0.066
06:13 1010 29.83 839 24.78 -2.1 28.1 94 -3 26.7 -1.723 -0.068
06:14 1010 29.83 839 24.78 -2.1 28.2 94 -2.9 26.8 -1.711 -0.067
06:15 1010 29.83 839 24.78 -2.1 28.3 94 -2.9 26.8 -1.694 -0.067
06:16 1010 29.83 839 24.78 -2.1 28.2 94 -2.9 26.7 -1.689 -0.066
06:17 1010 29.83 839 24.78 -2.1 28.2 94 -2.9 26.7 -1.689 -0.066
06:18 1010 29.83 839 24.78 -2.1 28.2 94 -2.9 26.7 -1.66 -0.065
06:19 1010 29.83 839 24.78 -2.1 28.2 94 -2.9 26.7 -1.677 -0.066
06:20 1010 29.83 839 24.78 -2.1 28.2 94 -2.9 26.7 -1.672 -0.066
06:21 1010 29.83 839 24.78 -2.1 28.2 94 -2.9 26.7 -1.666 -0.066
06:22 1010 29.83 839 24.78 -2.1 28.2 94 -2.9 26.7 -1.711 -0.067
06:23 1010 29.83 839 24.78 -2.1 28.2 94 -2.9 26.7 -1.7 -0.067
06:24 1010 29.83 839 24.78 -2.1 28.1 94 -3 26.7 -1.694 -0.067
06:25 1010 29.83 839 24.78 -2.1 28.1 94 -3 26.7 -1.706 -0.067
06:26 1010 29.83 839 24.78 -2.2 28.1 94 -2.9 26.7 -1.728 -0.068
06:27 1010 29.83 839 24.78 -2.1 28.1 94 -2.9 26.7 -1.734 -0.068
06:28 1010 29.83 839 24.78 -2.2 28.1 94 -3 26.7 -1.734 -0.068
06:29 1010 29.83 839 24.78 -2.2 28.1 94 -3 26.7 -1.751 -0.069
06:30 1010 29.83 839 24.78 -2.2 28 94 -3 26.6 -1.802 -0.071
06:31 1010 29.83 839 24.78 -2.2 28 95 -3 26.6 -1.785 -0.07
06:32 1010 29.83 839 24.78 -2.3 27.9 95 -3 26.6 -1.836 -0.072
06:33 1010 29.83 839 24.78 -2.3 27.9 95 -3 26.5 -1.881 -0.074
06:34 1010 29.83 839 24.78 -2.3 27.8 95 -3 26.5 -1.87 -0.074
06:35 1010 29.83 839 24.78 -2.3 27.9 95 -3 26.6 -1.864 -0.073
06:36 1010 29.83 839 24.78 -2.3 27.8 95 -3 26.6 -1.864 -0.073
06:37 1010 29.83 839 24.78 -2.3 27.9 95 -3 26.7 -1.864 -0.073
06:38 1010 29.83 839 24.78 -2.3 27.9 95 -2.9 26.7 -1.836 -0.072
06:39 1010 29.83 839 24.78 -2.2 28 95 -2.9 26.7 -1.791 -0.071
06:40 1010 29.83 839 24.78 -2.2 28 95 -2.9 26.7 -1.808 -0.071
06:41 1010 29.83 839 24.78 -2.2 28 95 -2.9 26.7 -1.791 -0.071
06:42 1010 29.83 839 24.78 -2.2 28 95 -3 26.7 -1.825 -0.072
06:43 1010 29.83 839 24.78 -2.2 28 95 -3 26.7 -1.808 -0.071
06:44 1010 29.83 839 24.78 -2.2 28 95 -3 26.7 -1.847 -0.073
06:45 1010 29.83 839 24.78 -2.2 28 95 -3 26.6 -1.819 -0.072
06:46 1010 29.83 839 24.78 -2.2 28 95 -3 26.6 -1.819 -0.072
06:47 1010 29.83 839 24.78 -2.2 28 94 -3 26.6 -1.847 -0.073
06:48 1010 29.83 839 24.78 -2.3 27.9 94 -3.1 26.5 -1.847 -0.073
06:49 1010 29.83 839 24.78 -2.3 27.9 95 -3 26.6 -1.83 -0.072
06:50 1010 29.83 839 24.78 -2.2 28 95 -3 26.6 -1.802 -0.071
06:51 1010 29.83 839 24.78 -2.2 28.1 94 -3 26.7 -1.774 -0.07
06:52 1010 29.83 839 24.78 -2.2 28.1 94 -3 26.6 -1.762 -0.069
06:53 1010 29.83 839 24.78 -2.2 28.1 94 -3 26.6 -1.779 -0.07
06:54 1010 29.83 839 24.78 -2.2 28.1 94 -3 26.6 -1.813 -0.071
06:55 1010 29.83 839 24.78 -2.2 28 94 -3 26.6 -1.791 -0.071
06:56 1010 29.83 839 24.78 -2.2 28.1 94 -3 26.6 -1.762 -0.069
06:57 1010 29.83 839 24.78 -2.2 28.1 94 -3 26.6 -1.762 -0.069
06:58 1010 29.83 839 24.78 -2.2 28.1 94 -3 26.5 -1.768 -0.07
06:59 1010 29.83 839 24.78 -2.2 28.1 94 -3.1 26.5 -1.785 -0.07
07:00 1010 29.83 839 24.78 -2.2 28 94 -3.1 26.4 -1.83 -0.072
07:01 1010 29.83 839 24.78 -2.2 28 94 -3.1 26.5 -1.83 -0.072
07:02 1010 29.83 839 24.78 -2.2 28 94 -3.1 26.4 -1.847 -0.073
07:03 1010 29.83 839 24.78 -2.2 28 94 -3.1 26.4 -1.853 -0.073
07:04 1010 29.83 839 24.78 -2.2 28 94 -3.1 26.5 -1.842 -0.073
07:05 1010 29.83 839 24.78 -2.2 28 94 -3.1 26.4 -1.842 -0.073
07:06 1010 29.83 839 24.78 -2.3 27.9 94 -3.2 26.3 -1.859 -0.073
07:07 1010 29.83 839 24.78 -2.3 27.9 93 -3.2 26.2 -1.904 -0.075
07:08 1010 29.83 839 24.78 -2.3 27.9 94 -3.2 26.2 -1.944 -0.077
07:09 1010 29.83 839 24.78 -2.4 27.7 93 -3.3 26 -1.955 -0.077
07:10 1010 29.83 839 24.78 -2.4 27.7 93 -3.3 26 -2.029 -0.08
07:11 1010 29.83 839 24.78 -2.5 27.6 93 -3.4 25.9 -2.051 -0.081
07:12 1010 29.83 839 24.78 -2.5 27.5 94 -3.4 25.9 -2.085 -0.082
07:13 1010 29.83 839 24.78 -2.5 27.4 94 -3.4 25.8 -2.125 -0.084
07:14 1010 29.83 839 24.78 -2.6 27.4 94 -3.4 25.9 -2.131 -0.084
07:15 1010 29.83 839 24.78 -2.5 27.5 94 -3.3 26.1 -2.114 -0.083
07:16 1010 29.83 839 24.78 -2.5 27.5 94 -3.4 25.9 -2.102 -0.083
07:17 1010 29.83 839 24.78 -2.6 27.3 93 -3.6 25.6 -2.21 -0.087
07:18 1010 29.83 839 24.78 -2.7 27.1 94 -3.6 25.5 -2.295 -0.09
07:19 1010 29.83 839 24.78 -2.8 27 94 -3.6 25.5 -2.357 -0.093
07:20 1010 29.83 839 24.78 -2.8 27 94 -3.6 25.5 -2.397 -0.094
07:21 1010 29.83 839 24.78 -2.8 27 94 -3.6 25.6 -2.402 -0.095
07:22 1010 29.83 839 24.78 -2.8 26.9 94 -3.6 25.4 -2.408 -0.095
07:23 1010 29.83 839 24.78 -2.9 26.9 94 -3.6 25.4 -2.493 -0.098
07:24 1010 29.83 839 24.78 -2.9 26.8 94 -3.7 25.3 -2.476 -0.097
07:25 1010 29.83 839 24.78 -2.9 26.7 94 -3.8 25.2 -2.516 -0.099
07:26 1010 29.83 839 24.78 -3 26.6 94 -3.9 25.1 -2.64 -0.104
07:27 1010 29.83 839 24.78 -3.1 26.4 94 -3.9 25 -2.669 -0.105
07:28 1010 29.83 839 24.78 -3.1 26.4 95 -3.8 25.1 -2.708 -0.107
07:29 1010 29.83 839 24.78 -3.2 26.3 95 -3.9 25 -2.697 -0.106
07:30 1010 29.83 839 24.78 -3.1 26.4 95 -3.7 25.3 -2.731 -0.108
07:31 1010 29.83 839 24.78 -3 26.5 96 -3.6 25.5 -2.646 -0.104
07:32 1010 29.83 839 24.78 -3.1 26.5 95 -3.8 25.2 -2.68 -0.106
07:33 1010 29.83 839 24.78 -3.2 26.3 95 -3.9 24.9 -2.77 -0.109
07:34 1010 29.83 839 24.78 -3.2 26.3 96 -3.8 25.2 -2.816 -0.111
07:35 1010 29.83 839 24.78 -3 26.5 96 -3.6 25.5 -2.652 -0.104
07:36 1010 29.83 839 24.78 -3 26.6 96 -3.6 25.5 -2.612 -0.103
07:37 1010 29.83 839 24.78 -3 26.6 95 -3.6 25.5 -2.646 -0.104
07:38 1010 29.83 839 24.78 -3 26.6 94 -3.8 25.2 -2.685 -0.106
07:39 1010 29.83 839 24.78 -3.2 26.2 93 -4.2 24.4 -2.884 -0.114
07:40 1010 29.83 839 24.78 -3.4 25.9 94 -4.2 24.5 -3.014 -0.119
07:41 1010 29.83 839 24.78 -3.4 25.9 95 -4.1 24.6 -3.035 -0.119
07:42 1010 29.83 839 24.78 -3.4 25.9 95 -4.1 24.7 -3.007 -0.118
07:43 1010 29.83 839 24.78 -3.4 26 95 -4.1 24.6 -3.001 -0.118
07:44 1010 29.83 839 24.78 -3.4 25.9 94 -4.2 24.5 -3.034 -0.119
07:45 1010 29.83 839 24.78 -3.5 25.8 94 -4.3 24.2 -3.097 -0.122
07:46 1010 29.83 839 24.78 -3.6 25.6 94 -4.4 24 -3.164 -0.125
07:47 1010 29.83 839 24.78 -3.6 25.5 94 -4.4 24 -3.254 -0.128
07:48 1010 29.83 839 24.78 -3.6 25.5 94 -4.4 24.1 -3.22 -0.127
07:49 1010 29.83 839 24.78 -3.6 25.5 95 -4.4 24.1 -3.22 -0.127
07:50 1010 29.83 839 24.78 -3.6 25.5 95 -4.4 24.1 -3.214 -0.127
07:51 1010 29.83 839 24.78 -3.6 25.5 94 -4.4 24.1 -3.225 -0.127
07:52 1010 29.83 839 24.78 -3.6 25.5 95 -4.3 24.2 -3.219 -0.127
07:53 1010 29.83 839 24.78 -3.6 25.5 94 -4.5 24 -3.242 -0.128
07:54 1010 29.83 839 24.78 -3.7 25.4 94 -4.5 23.8 -3.304 -0.13
07:55 1010 29.83 839 24.78 -3.7 25.3 94 -4.6 23.8 -3.349 -0.132
07:56 1010 29.83 839 24.78 -3.7 25.4 95 -4.4 24 -3.321 -0.131
07:57 1010 29.83 839 24.78 -3.7 25.4 94 -4.5 24 -3.298 -0.13
07:58 1010 29.83 840 24.81 -3.7 25.4 94 -4.4 24 -3.253 -0.128
07:59 1010 29.83 840 24.81 -3.7 25.4 94 -4.5 23.9 -3.292 -0.13
08:00 1010 29.83 840 24.81 -3.7 25.4 94 -4.6 23.8 -3.354 -0.132
08:01 1010 29.83 840 24.81 -3.8 25.2 94 -4.6 23.7 -3.428 -0.135
08:02 1010 29.83 839 24.78 -3.8 25.1 94 -4.7 23.6 -3.428 -0.135
08:03 1010 29.83 839 24.78 -3.9 25 94 -4.7 23.5 -3.456 -0.136
08:04 1010 29.83 840 24.81 -3.9 25 94 -4.7 23.5 -3.496 -0.138
08:05 1010 29.83 840 24.81 -3.9 24.9 94 -4.8 23.4 -3.547 -0.14
08:06 1010 29.83 840 24.81 -4 24.9 94 -4.7 23.5 -3.541 -0.139
08:07 1010 29.83 839 24.78 -4 24.8 95 -4.7 23.6 -3.569 -0.141
08:08 1010 29.83 839 24.78 -4 24.9 95 -4.6 23.7 -3.518 -0.139
08:09 1010 29.83 840 24.81 -3.9 25 95 -4.6 23.7 -3.478 -0.137
08:10 1010 29.83 840 24.81 -3.9 25 94 -4.7 23.6 -3.49 -0.137
08:11 1010 29.83 840 24.81 -3.9 25 94 -4.7 23.6 -3.484 -0.137
08:12 1010 29.83 840 24.81 -3.8 25.1 94 -4.6 23.7 -3.444 -0.136
08:13 1010 29.83 840 24.81 -3.8 25.2 94 -4.5 23.8 -3.422 -0.135
08:14 1011 29.85 840 24.81 -3.8 25.2 94 -4.6 23.8 -3.348 -0.132
08:15 1011 29.85 840 24.81 -3.8 25.3 94 -4.6 23.6 -3.365 -0.132
08:16 1011 29.85 840 24.81 -3.7 25.3 95 -4.5 24 -3.365 -0.132
08:17 1011 29.85 840 24.81 -3.7 25.4 95 -4.3 24.2 -3.201 -0.126
08:18 1011 29.85 840 24.81 -3.5 25.6 95 -4.2 24.5 -3.104 -0.122
08:19 1011 29.85 840 24.81 -3.4 25.8 95 -4.1 24.7 -3.025 -0.119
08:20 1011 29.85 840 24.81 -3.4 25.9 95 -4.1 24.7 -2.968 -0.117
08:21 1011 29.85 840 24.81 -3.2 26.2 95 -3.9 25 -2.877 -0.113
08:22 1011 29.85 840 24.81 -3.1 26.4 94 -3.9 25.1 -2.723 -0.107
08:23 1011 29.85 840 24.81 -3 26.7 93 -3.9 25 -2.587 -0.102
08:24 1011 29.85 840 24.81 -3 26.6 93 -4 24.7 -2.633 -0.104
08:25 1011 29.85 840 24.81 -3.1 26.4 92 -4.2 24.5 -2.695 -0.106
08:26 1011 29.85 840 24.81 -3.2 26.3 92 -4.2 24.4 -2.769 -0.109
08:27 1011 29.85 840 24.81 -3.2 26.2 93 -4.2 24.4 -2.865 -0.113
08:28 1011 29.85 840 24.81 -3.2 26.2 93 -4.2 24.5 -2.814 -0.111
08:29 1011 29.85 840 24.81 -3.2 26.2 93 -4.2 24.5 -2.831 -0.111
08:30 1011 29.85 840 24.81 -3.2 26.2 93 -4.2 24.4 -2.842 -0.112
08:31 1011 29.85 840 24.81 -3.2 26.2 93 -4.2 24.4 -2.887 -0.114
08:32 1011 29.85 840 24.81 -3.2 26.2 93 -4.2 24.5 -2.847 -0.112
08:33 1011 29.85 840 24.81 -3.2 26.2 94 -4.1 24.6 -2.802 -0.11
08:34 1011 29.85 840 24.81 -3.2 26.3 93 -4.1 24.7 -2.761 -0.109
08:35 1011 29.85 840 24.81 -3.1 26.4 93 -4 24.8 -2.722 -0.107
08:36 1011 29.85 840 24.81 -3 26.6 93 -3.9 24.9 -2.648 -0.104
08:37 1011 29.85 840 24.81 -3 26.6 93 -4 24.9 -2.603 -0.102
08:38 1011 29.85 840 24.81 -3 26.6 92 -4.1 24.6 -2.569 -0.101
08:39 1011 29.85 840 24.81 -3 26.5 91 -4.3 24.3 -2.688 -0.106
08:40 1011 29.85 840 24.81 -3.2 26.2 90 -4.6 23.7 -2.778 -0.109
08:41 1011 29.85 840 24.81 -3.3 26 91 -4.6 23.7 -2.869 -0.113
08:42 1011 29.85 840 24.81 -3.3 26 92 -4.4 24 -2.846 -0.112
08:43 1011 29.85 840 24.81 -3.2 26.2 93 -4.2 24.4 -2.749 -0.108
08:44 1011 29.85 840 24.81 -3.1 26.4 93 -4.1 24.6 -2.653 -0.104
08:45 1011 29.85 840 24.81 -3 26.7 92 -4.1 24.6 -2.545 -0.1
08:46 1011 29.85 840 24.81 -2.9 26.9 92 -4 24.7 -2.488 -0.098
08:47 1011 29.85 840 24.81 -2.7 27.2 91 -3.9 25 -2.46 -0.097
08:48 1011 29.85 840 24.81 -2.5 27.4 91 -3.8 25.1 -2.386 -0.094
08:49 1011 29.85 840 24.81 -2.5 27.5 89 -4.1 24.7 -2.312 -0.091
08:50 1011 29.85 840 24.81 -2.6 27.4 89 -4.2 24.5 -2.318 -0.091
08:51 1011 29.85 840 24.81 -2.6 27.3 88 -4.2 24.4 -2.306 -0.091
08:52 1011 29.85 840 24.81 -2.7 27.2 90 -4.1 24.6 -2.351 -0.093
08:53 1011 29.85 840 24.81 -2.6 27.2 91 -4 24.9 -2.312 -0.091
08:54 1011 29.85 840 24.81 -2.6 27.3 90 -4 24.8 -2.243 -0.088
08:55 1011 29.85 840 24.81 -2.6 27.3 90 -4 24.8 -2.232 -0.088
08:56 1011 29.85 840 24.81 -2.5 27.4 91 -3.8 25.1 -2.181 -0.086
08:57 1011 29.85 840 24.81 -2.5 27.5 91 -3.8 25.2 -2.135 -0.084
08:58 1011 29.85 840 24.81 -2.4 27.6 91 -3.7 25.3 -2.079 -0.082
08:59 1011 29.85 840 24.81 -2.4 27.6 90 -3.8 25.2 -2.067 -0.081
09:00 1011 29.85 840 24.81 -2.4 27.6 90 -3.9 24.9 -2.113 -0.083
09:01 1011 29.85 840 24.81 -2.5 27.6 89 -4 24.8 -2.101 -0.083
09:02 1011 29.85 840 24.81 -2.4 27.6 89 -4 24.8 -1.994 -0.079
09:03 1011 29.85 840 24.81 -2.4 27.7 89 -3.9 24.9 -1.899 -0.075
09:04 1011 29.85 840 24.81 -2.3 27.9 88 -4 24.9 -1.819 -0.072
09:05 1011 29.85 840 24.81 -2.3 27.9 89 -3.9 25 -1.791 -0.071
09:06 1011 29.85 840 24.81 -2.1 28.2 90 -3.6 25.6 -1.69 -0.067
09:07 1011 29.85 840 24.81 -1.9 28.6 90 -3.3 26.1 -1.486 -0.059
09:08 1011 29.85 840 24.81 -1.6 29.1 87 -3.5 25.7 -1.424 -0.056
09:09 1011 29.85 840 24.81 -1.6 29.1 86 -3.6 25.5 -1.492 -0.059
09:10 1011 29.85 841 24.83 -1.7 29 87 -3.6 25.6 -1.424 -0.056
09:11 1011 29.85 841 24.83 -1.7 29 85 -3.9 25 -1.453 -0.057
09:12 1011 29.85 841 24.83 -1.7 28.9 86 -3.7 25.3 -1.465 -0.058
09:13 1011 29.85 841 24.83 -1.6 29.1 86 -3.6 25.5 -1.368 -0.054
09:14 1011 29.85 841 24.83 -1.5 29.4 87 -3.4 25.9 -1.142 -0.045
09:15 1011 29.85 841 24.83 -1.3 29.7 86 -3.3 26 -0.984 -0.039
09:16 1011 29.85 841 24.83 -1.2 29.9 85 -3.4 25.9 -0.882 -0.035
09:17 1011 29.85 841 24.83 -1.1 30 85 -3.4 25.9 -0.78 -0.031
09:18 1011 29.85 840 24.81 -1.1 30.1 85 -3.3 26.1 -0.701 -0.028
09:19 1011 29.85 840 24.81 -1 30.1 85 -3.2 26.3 -0.684 -0.027
09:20 1011 29.85 841 24.83 -1.2 29.9 85 -3.4 25.9 -0.797 -0.031
09:21 1011 29.85 841 24.83 -1.2 29.8 86 -3.3 26 -0.871 -0.034
09:22 1012 29.88 841 24.83 -1.2 29.8 85 -3.3 26 -0.911 -0.036
09:23 1012 29.88 841 24.83 -1.2 29.8 85 -3.4 25.9 -0.946 -0.037
09:24 1012 29.88 841 24.83 -1.2 29.8 86 -3.3 26.1 -0.912 -0.036
09:25 1011 29.85 841 24.83 -1.1 30 86 -3.2 26.2 -0.901 -0.035
09:26 1011 29.85 841 24.83 -1.1 30.1 85 -3.3 26.1 -0.891 -0.035
09:27 1011 29.85 841 24.83 -1.1 30.1 85 -3.2 26.2 -0.834 -0.033
09:28 1011 29.85 841 24.83 -0.9 30.3 85 -3.1 26.4 -0.755 -0.03
09:29 1011 29.85 841 24.83 -0.8 30.6 85 -2.9 26.7 -0.569 -0.022
09:30 1011 29.85 841 24.83 -0.6 30.8 85 -2.9 26.9 -0.399 -0.016
09:31 1011 29.85 841 24.83 -0.5 31.1 84 -2.8 26.9 -0.309 -0.012
09:32 1011 29.85 841 24.83 -0.5 31.2 84 -2.8 27 -0.168 -0.007
09:33 1011 29.85 841 24.83 -0.4 31.4 84 -2.8 27 -0.004 -0
09:34 1011 29.85 841 24.83 -0.2 31.6 84 -2.6 27.3 0.121 0.005
09:35 1012 29.88 841 24.83 -0 31.9 83 -2.6 27.2 0.313 0.012
09:36 1012 29.88 841 24.83 0 32.1 81 -2.8 27 0.392 0.015
09:37 1012 29.88 841 24.83 0.2 32.3 81 -2.8 27 0.46 0.018
09:38 1012 29.88 841 24.83 0.3 32.5 80 -2.8 27 0.556 0.022
09:39 1012 29.88 841 24.83 0.4 32.7 80 -2.7 27.1 0.652 0.026
09:40 1012 29.88 841 24.83 0.5 32.9 79 -2.7 27.1 0.726 0.029
09:41 1012 29.88 841 24.83 0.6 33.1 79 -2.6 27.3 0.85 0.033
09:42 1012 29.88 841 24.83 0.8 33.4 78 -2.6 27.3 0.946 0.037
09:43 1012 29.88 841 24.83 0.8 33.4 78 -2.6 27.2 1.009 0.04
09:44 1011 29.85 841 24.83 0.9 33.5 78 -2.5 27.4 1.048 0.041
09:45 1012 29.88 841 24.83 0.9 33.6 78 -2.5 27.6 1.099 0.043
09:46 1012 29.88 841 24.83 0.9 33.6 78 -2.5 27.5 1.053 0.041
09:47 1011 29.85 841 24.83 0.9 33.6 79 -2.4 27.7 1.063 0.042
09:48 1012 29.88 841 24.83 0.9 33.6 79 -2.4 27.7 1.114 0.044
09:49 1012 29.88 841 24.83 0.8 33.5 79 -2.4 27.8 1.091 0.043
09:50 1012 29.88 841 24.83 0.9 33.7 79 -2.3 27.9 1.181 0.046
09:51 1011 29.85 841 24.83 0.9 33.7 78 -2.5 27.5 1.175 0.046
09:52 1011 29.85 841 24.83 1 33.8 78 -2.3 27.8 1.26 0.05
09:53 1011 29.85 841 24.83 1.1 33.9 78 -2.3 27.9 1.321 0.052
09:54 1011 29.85 841 24.83 1.1 34 78 -2.2 28 1.406 0.055
09:55 1011 29.85 841 24.83 1.2 34.2 79 -2.1 28.3 1.569 0.062
09:56 1011 29.85 841 24.83 1.4 34.4 78 -2.1 28.2 1.676 0.066
09:57 1011 29.85 841 24.83 1.5 34.6 76 -2.3 27.9 1.8 0.071
09:58 1011 29.85 841 24.83 1.6 34.8 77 -2.1 28.2 1.913 0.075
09:59 1011 29.85 841 24.83 1.7 35 76 -2.2 28.1 2.036 0.08
10:00 1011 29.85 841 24.83 1.8 35.2 77 -1.8 28.8 2.099 0.083
10:01 1011 29.85 841 24.83 1.9 35.4 76 -1.9 28.7 2.239 0.088
10:02 1011 29.85 841 24.83 2 35.7 75 -1.8 28.7 2.352 0.093
10:03 1011 29.85 841 24.83 2.1 35.9 74 -1.9 28.5 2.454 0.097
10:04 1012 29.88 841 24.83 2.2 36 75 -1.8 28.8 2.606 0.103
10:05 1012 29.88 841 24.83 2.3 36.2 73 -2 28.5 2.668 0.105
10:06 1011 29.85 841 24.83 2.5 36.4 74 -1.7 28.9 2.736 0.108
10:07 1012 29.88 841 24.83 2.6 36.7 73 -1.8 28.7 2.831 0.111
10:08 1012 29.88 841 24.83 2.7 36.9 73 -1.7 28.9 3.012 0.119
10:09 1012 29.88 841 24.83 2.9 37.2 72 -1.6 29.1 3.08 0.121
10:10 1012 29.88 841 24.83 2.9 37.2 72 -1.7 29 3.187 0.125
10:11 1012 29.88 841 24.83 3 37.3 72 -1.5 29.2 3.317 0.131
10:12 1012 29.88 841 24.83 3.1 37.5 73 -1.4 29.5 3.453 0.136
10:13 1012 29.88 841 24.83 3.2 37.8 71 -1.4 29.4 3.577 0.141
10:14 1012 29.88 841 24.83 3.3 37.9 72 -1.2 29.8 3.458 0.136
10:15 1012 29.88 841 24.83 3.3 37.9 72 -1.4 29.6 3.345 0.132
10:16 1012 29.88 841 24.83 3.3 37.9 72 -1.4 29.6 3.4 0.134
10:17 1012 29.88 841 24.83 3.3 38 72 -1.3 29.6 3.496 0.138
10:18 1012 29.88 841 24.83 3.4 38.1 70 -1.5 29.3 3.643 0.143
10:19 1012 29.88 841 24.83 3.5 38.4 71 -1.3 29.7 3.783 0.149
10:20 1012 29.88 841 24.83 3.7 38.7 70 -1.3 29.7 3.987 0.157
10:21 1012 29.88 841 24.83 3.8 38.9 69 -1.4 29.4 4.106 0.162
10:22 1012 29.88 841 24.83 3.8 38.8 70 -1.1 30 4.154 0.164
10:23 1012 29.88 841 24.83 3.8 38.8 70 -1.3 29.7 4.171 0.164
10:24 1012 29.88 841 24.83 3.8 38.9 70 -1.1 30 4.193 0.165
10:25 1012 29.88 841 24.83 3.9 38.9 69 -1.4 29.5 4.208 0.166
10:26 1012 29.88 841 24.83 4 39.1 70 -1 30.2 4.265 0.168
10:27 1012 29.88 841 24.83 4.1 39.3 68 -1.3 29.7 4.429 0.174
10:28 1012 29.88 841 24.83 4.3 39.7 68 -1 30.2 4.523 0.178
10:29 1012 29.88 841 24.83 4.4 40 67 -1.2 29.8 4.535 0.179
10:30 1012 29.88 841 24.83 4.6 40.2 66 -1.2 29.9 4.557 0.179
10:31 1012 29.88 841 24.83 4.8 40.6 66 -1.1 30 4.731 0.186
10:32 1012 29.88 841 24.83 5 41.1 66 -0.9 30.5 4.912 0.193
10:33 1012 29.88 841 24.83 5.2 41.4 66 -0.6 30.9 5.059 0.199
10:34 1012 29.88 841 24.83 5.3 41.6 65 -0.7 30.8 5.115 0.201
10:35 1012 29.88 841 24.83 5.3 41.6 65 -0.8 30.6 5.132 0.202
10:36 1012 29.88 841 24.83 5.4 41.7 64 -0.8 30.5 5.183 0.204
10:37 1012 29.88 841 24.83 5.6 42 63 -0.9 30.4 5.273 0.208
10:38 1012 29.88 841 24.83 5.7 42.3 62 -0.9 30.4 5.374 0.212
10:39 1012 29.88 841 24.83 5.9 42.7 62 -0.8 30.6 5.499 0.216
10:40 1012 29.88 841 24.83 6 42.9 61 -0.8 30.5 5.572 0.219
10:41 1012 29.88 841 24.83 6 42.9 62 -0.6 31 5.634 0.222
10:42 1012 29.88 841 24.83 6.1 43 62 -0.7 30.8 5.791 0.228
10:43 1012 29.88 841 24.83 6.2 43.2 61 -0.6 30.9 5.954 0.234
10:44 1012 29.88 841 24.83 6.3 43.4 60 -0.8 30.6 6.056 0.238
10:45 1012 29.88 841 24.83 6.4 43.6 60 -0.7 30.8 6.112 0.241
10:46 1012 29.88 841 24.83 6.4 43.6 61 -0.6 30.9 6.168 0.243
10:47 1012 29.88 841 24.83 6.5 43.6 60 -0.7 30.8 6.19 0.244
10:48 1012 29.88 841 24.83 6.5 43.6 59 -0.9 30.4 6.234 0.245
10:49 1012 29.88 841 24.83 6.5 43.7 61 -0.4 31.2 6.301 0.248
10:50 1012 29.88 841 24.83 6.6 43.8 59 -0.8 30.6 6.374 0.251
10:51 1012 29.88 841 24.83 6.6 43.9 59 -0.8 30.6 6.39 0.252
10:52 1012 29.88 841 24.83 6.7 44 59 -0.6 30.8 6.474 0.255
10:53 1012 29.88 841 24.83 6.8 44.2 60 -0.5 31.2 6.502 0.256
10:54 1012 29.88 841 24.83 6.8 44.2 59 -0.7 30.7 6.455 0.254
10:55 1012 29.88 841 24.83 6.8 44.2 59 -0.7 30.8 6.562 0.258
10:56 1012 29.88 841 24.83 6.9 44.4 60 -0.4 31.2 6.664 0.262
10:57 1012 29.88 841 24.83 6.9 44.3 59 -0.6 30.9 6.702 0.264
10:58 1012 29.88 841 24.83 6.8 44.2 59 -0.5 31 6.781 0.267
10:59 1012 29.88 841 24.83 6.8 44.3 59 -0.5 31 6.787 0.267
11:00 1012 29.88 841 24.83 6.8 44.3 59 -0.5 31 6.916 0.272
11:01 1012 29.88 841 24.83 6.9 44.5 58 -0.6 30.9 7.06 0.278
11:02 1012 29.88 841 24.83 7 44.6 58 -0.7 30.8 7.19 0.283
11:03 1012 29.88 841 24.83 7 44.5 59 -0.6 31 7.24 0.285
11:04 1012 29.88 841 24.83 7 44.7 59 -0.5 31.2 7.24 0.285
11:05 1012 29.88 841 24.83 6.9 44.3 59 -0.5 31.1 7.05 0.278
11:06 1012 29.88 841 24.83 6.7 44 61 -0.3 31.5 6.873 0.271
11:07 1012 29.88 841 24.83 6.4 43.5 62 -0.4 31.2 6.641 0.261
11:08 1012 29.88 841 24.83 6.1 43 64 -0.2 31.7 6.352 0.25
11:09 1012 29.88 841 24.83 5.7 42.3 66 -0.1 31.8 6.028 0.237
11:10 1012 29.88 841 24.83 5.3 41.6 68 -0.1 31.8 5.672 0.223
11:11 1012 29.88 841 24.83 5.1 41.1 69 -0.2 31.6 5.44 0.214
11:12 1012 29.88 841 24.83 5.1 41.1 69 -0.2 31.7 5.501 0.217
11:13 1012 29.88 841 24.83 5.3 41.5 69 0 32.1 5.727 0.225
11:14 1012 29.88 841 24.83 5.6 42.1 69 0.3 32.6 6.004 0.236
11:15 1012 29.88 841 24.83 6.1 42.9 65 -0 31.9 6.437 0.253
11:16 1012 29.88 841 24.83 6.5 43.8 62 -0.2 31.7 6.799 0.268
11:17 1012 29.88 841 24.83 6.8 44.3 60 -0.3 31.4 7.14 0.281
11:18 1012 29.88 841 24.83 7.1 44.7 58 -0.5 31 7.4 0.291
11:19 1012 29.88 841 24.83 7.2 44.9 59 -0.2 31.6 7.52 0.296
11:20 1012 29.88 841 24.83 7.3 45.2 58 -0.3 31.5 7.63 0.3
11:21 1012 29.88 841 24.83 7.6 45.7 58 -0.2 31.7 7.82 0.308
11:22 1012 29.88 841 24.83 7.9 46.2 58 0.1 32.1 8.04 0.317
11:23 1012 29.88 841 24.83 8.1 46.6 56 -0.2 31.6 8.25 0.325
11:24 1012 29.88 841 24.83 8 46.3 57 -0 32 8.2 0.323
11:25 1012 29.88 841 24.83 7.6 45.7 58 -0.1 31.9 7.87 0.31
11:26 1012 29.88 841 24.83 7.4 45.2 60 0 32 7.58 0.298
11:27 1012 29.88 841 24.83 7.3 45.1 60 -0 32 7.51 0.296
11:28 1012 29.88 841 24.83 7.3 45.1 61 0.2 32.4 7.56 0.298
11:29 1012 29.88 841 24.83 7.4 45.3 60 0.2 32.3 7.77 0.306
11:30 1012 29.88 841 24.83 7.7 45.8 59 0.3 32.5 8.01 0.315
11:31 1012 29.88 841 24.83 8 46.4 58 0.3 32.5 8.33 0.328
11:32 1012 29.88 841 24.83 8.2 46.7 57 0.1 32.1 8.52 0.335
11:33 1012 29.88 841 24.83 8.1 46.5 58 0.2 32.4 8.45 0.333
11:34 1012 29.88 841 24.83 7.7 45.9 60 0.4 32.7 8.14 0.32
11:35 1012 29.88 841 24.83 7.6 45.6 60 0.4 32.8 7.96 0.313
11:36 1012 29.88 841 24.83 7.6 45.7 60 0.5 32.8 8.03 0.316
11:37 1012 29.88 841 24.83 7.6 45.7 61 0.6 33.1 8.1 0.319
11:38 1012 29.88 841 24.83 7.4 45.3 62 0.7 33.2 7.98 0.314
11:39 1012 29.88 841 24.83 7.2 44.9 62 0.5 32.9 7.76 0.306
11:40 1012 29.88 841 24.83 7 44.6 62 0.3 32.5 7.6 0.299
11:41 1012 29.88 841 24.83 7 44.7 64 0.7 33.2 7.54 0.297
11:42 1012 29.88 841 24.83 7 44.7 61 0.1 32.1 7.5 0.295
11:43 1012 29.88 841 24.83 7.1 44.7 61 0 32 7.51 0.296
11:44 1012 29.88 841 24.83 7 44.5 61 0.1 32.1 7.41 0.292
11:45 1012 29.88 841 24.83 6.8 44.2 63 0.2 32.3 7.15 0.281
11:46 1012 29.88 841 24.83 6.6 43.9 64 0.2 32.4 7.04 0.277
11:47 1012 29.88 841 24.83 6.6 43.9 64 0.2 32.4 7.04 0.277
11:48 1012 29.88 841 24.83 6.4 43.6 64 0.2 32.4 6.887 0.271
11:49 1012 29.88 841 24.83 6.4 43.6 66 0.6 33 6.875 0.271
11:50 1012 29.88 841 24.83 6.5 43.6 65 0.4 32.6 6.901 0.272
11:51 1012 29.88 841 24.83 6.4 43.4 65 0.4 32.7 6.805 0.268
11:52 1012 29.88 841 24.83 6.3 43.4 65 0.2 32.3 6.771 0.267
11:53 1012 29.88 841 24.83 6.4 43.6 65 0.3 32.6 6.871 0.271
11:54 1012 29.88 841 24.83 6.5 43.8 65 0.5 32.9 6.967 0.274
11:55 1012 29.88 841 24.83 6.6 43.9 63 0.2 32.4 7.08 0.279
11:56 1012 29.88 841 24.83 6.9 44.5 63 0.5 32.9 7.41 0.292
11:57 1012 29.88 841 24.83 7.5 45.4 62 0.6 33.1 7.8 0.307
11:58 1012 29.88 841 24.83 8 46.4 59 0.6 33.1 8.29 0.326
11:59 1012 29.88 841 24.83 8.6 47.4 59 0.9 33.7 8.81 0.347
12:00 1012 29.88 841 24.83 9.1 48.3 58 1.2 34.2 9.36 0.369
12:01 1012 29.88 841 24.83 9.6 49.2 55 1 33.9 9.85 0.388
12:02 1012 29.88 841 24.83 10.1 50.2 55 1.5 34.7 10.2 0.402
12:03 1012 29.88 841 24.83 10.5 50.9 52 1.2 34.1 10.5 0.413
12:04 1012 29.88 841 24.83 10.7 51.3 51 1 33.9 10.66 0.42
12:05 1012 29.88 841 24.83 10.9 51.6 52 1.4 34.5 10.78 0.424
12:06 1012 29.88 841 24.83 11 51.8 51 1.3 34.4 10.94 0.431
12:07 1012 29.88 841 24.83 11.1 52 51 1.3 34.3 11 0.433
12:08 1012 29.88 841 24.83 11.1 52.1 52 1.8 35.2 11.05 0.435
12:09 1012 29.88 841 24.83 11.2 52.2 50 1.2 34.1 11.19 0.441
12:10 1012 29.88 841 24.83 11.3 52.4 50 1.2 34.2 11.37 0.448
12:11 1012 29.88 841 24.83 11.5 52.6 50 1.5 34.6 11.47 0.452
12:12 1012 29.88 841 24.83 11.6 52.8 51 1.7 35.1 11.6 0.457
12:13 1012 29.88 841 24.83 11.7 53.1 49 1.5 34.8 11.68 0.46
12:14 1012 29.88 841 24.83 11.7 53.1 46 0.6 33.1 11.71 0.461
12:15 1012 29.88 841 24.83 11.6 52.8 48 1 33.9 11.57 0.456
12:16 1012 29.88 841 24.83 11.4 52.6 47 0.7 33.2 11.48 0.452
12:17 1012 29.88 841 24.83 11.3 52.4 49 0.9 33.6 11.36 0.447
12:18 1012 29.88 841 24.83 11.2 52.1 47 0.4 32.8 11.31 0.445
12:19 1012 29.88 841 24.83 11.1 52 48 0.7 33.2 11.23 0.442
12:20 1012 29.88 841 24.83 11.1 51.9 51 1.2 34.2 11.14 0.439
12:21 1012 29.88 841 24.83 10.8 51.5 51 1.3 34.3 11 0.433
12:22 1012 29.88 841 24.83 10.7 51.2 51 1 33.8 10.8 0.425
12:23 1012 29.88 841 24.83 10.5 51 51 0.9 33.6 10.77 0.424
12:24 1012 29.88 841 24.83 10.7 51.3 49 0.5 32.9 10.92 0.43
12:25 1012 29.88 841 24.83 10.9 51.5 48 0.2 32.4 11.08 0.436
12:26 1012 29.88 841 24.83 11.1 51.9 48 0.5 33 11.29 0.444
12:27 1012 29.88 841 24.83 11.2 52.2 48 0.7 33.3 11.52 0.454
12:28 1012 29.88 841 24.83 11.4 52.5 48 0.8 33.5 11.72 0.461
12:29 1012 29.88 841 24.83 11.6 52.8 47 0.8 33.4 11.93 0.47
12:30 1012 29.88 841 24.83 11.8 53.3 47 0.9 33.7 12.05 0.474
12:31 1012 29.88 841 24.83 12 53.6 46 0.9 33.6 12.15 0.478
12:32 1012 29.88 841 24.83 12.1 53.9 47 1.2 34.1 12.3 0.484
12:33 1012 29.88 841 24.83 12.2 53.9 45 0.5 33 12.41 0.489
12:34 1012 29.88 841 24.83 12.3 54.1 43 0 32 12.5 0.492
12:35 1012 29.88 841 24.83 12.3 54.2 43 0.2 32.4 12.65 0.498
12:36 1012 29.88 841 24.83 12.5 54.5 42 0 32.1 12.86 0.506
12:37 1012 29.88 841 24.83 12.8 55 43 0.6 33 13.11 0.516
12:38 1012 29.88 841 24.83 13.1 55.5 41 0.3 32.6 13.44 0.529
12:39 1012 29.88 841 24.83 13.1 55.6 42 0.5 32.9 13.6 0.535
12:40 1012 29.88 841 24.83 13 55.3 42 0.4 32.7 13.43 0.529
12:41 1012 29.88 841 24.83 12.9 55.2 45 1.4 34.5 13.42 0.528
12:42 1012 29.88 841 24.83 12.9 55.2 44 1.1 34 13.36 0.526
12:43 1012 29.88 841 24.83 12.8 55.1 43 0.7 33.3 13.27 0.522
12:44 1012 29.88 841 24.83 12.7 54.9 42 0.3 32.5 13.12 0.517
12:45 1012 29.88 841 24.83 12.6 54.7 42 0.1 32.2 13.01 0.512
12:46 1012 29.88 841 24.83 12.6 54.7 40 -0.7 30.7 13.06 0.514
12:47 1012 29.88 841 24.83 12.8 55 40 -0.3 31.4 13.19 0.519
12:48 1012 29.88 841 24.83 12.9 55.2 41 0 32 13.36 0.526
12:49 1012 29.88 841 24.83 13 55.5 43 0.8 33.5 13.51 0.532
12:50 1012 29.88 841 24.83 13.1 55.6 41 0.3 32.5 13.61 0.536
12:51 1012 29.88 841 24.83 13.3 55.9 43 0.9 33.6 13.74 0.541
12:52 1012 29.88 841 24.83 13.1 55.7 45 1.5 34.8 13.66 0.538
12:53 1012 29.88 841 24.83 13 55.4 39 -0.5 31.1 13.44 0.529
12:54 1012 29.88 841 24.83 13 55.3 40 -0.4 31.3 13.36 0.526
12:55 1012 29.88 841 24.83 12.9 55.2 41 -0 31.9 13.36 0.526
12:56 1012 29.88 841 24.83 13.1 55.5 39 -0.4 31.2 13.53 0.533
12:57 1012 29.88 841 24.83 13.3 55.9 40 0.2 32.3 13.67 0.538
12:58 1012 29.88 841 24.83 13.3 56 40 -0 32 13.74 0.541
12:59 1012 29.88 841 24.83 13.4 56.1 38 -0.6 31 13.84 0.545
13:00 1012 29.88 841 24.83 13.6 56.5 38 -0.4 31.3 14.06 0.554
13:01 1012 29.88 841 24.83 13.8 56.8 36 -0.8 30.6 14.23 0.56
13:02 1012 29.88 841 24.83 13.8 56.9 38 -0.2 31.7 14.26 0.561
13:03 1012 29.88 841 24.83 13.7 56.6 38 -0.2 31.6 14.1 0.555
13:04 1012 29.88 841 24.83 13.4 56 38 -0.6 31 13.83 0.544
13:05 1012 29.88 841 24.83 13.2 55.8 39 -0.2 31.6 13.63 0.537
13:06 1012 29.88 841 24.83 13.1 55.5 40 -0.3 31.4 13.52 0.532
13:07 1012 29.88 841 24.83 13 55.4 40 -0.1 31.8 13.42 0.528
13:08 1012 29.88 841 24.83 13 55.3 39 -0.5 31.2 13.36 0.526
13:09 1012 29.88 841 24.83 12.9 55.2 38 -1 30.2 13.31 0.524
13:10 1012 29.88 841 24.83 13 55.4 40 -0.2 31.7 13.36 0.526
13:11 1012 29.88 841 24.83 13.1 55.5 40 -0.3 31.5 13.47 0.53
13:12 1012 29.88 841 24.83 13.2 55.8 39 -0.2 31.6 13.57 0.534
13:13 1012 29.88 841 24.83 13.4 56.2 38 -0.6 31 13.88 0.546
13:14 1012 29.88 841 24.83 13.6 56.5 39 -0 31.9 14 0.551
13:15 1012 29.88 841 24.83 13.7 56.6 37 -0.6 30.9 14.08 0.554
13:16 1012 29.88 841 24.83 13.6 56.5 36 -1.1 30 14.01 0.552
13:17 1012 29.88 841 24.83 13.5 56.2 37 -0.8 30.5 13.87 0.546
13:18 1012 29.88 842 24.86 13.3 56 41 0.3 32.6 13.73 0.541
13:19 1012 29.88 842 24.86 13.2 55.7 39 -0.5 31.2 13.57 0.534
13:20 1012 29.88 842 24.86 13 55.4 38 -0.8 30.6 13.43 0.529
13:21 1012 29.88 842 24.86 12.9 55.2 39 -0.6 30.8 13.3 0.524
13:22 1012 29.88 842 24.86 12.9 55.2 40 -0.3 31.4 13.26 0.522
13:23 1012 29.88 842 24.86 13 55.4 41 0.1 32.1 13.44 0.529
13:24 1012 29.88 842 24.86 13.3 55.9 36 -1.4 29.4 13.71 0.54
13:25 1012 29.88 842 24.86 13.4 56.1 36 -1.3 29.7 13.8 0.543
13:26 1012 29.88 842 24.86 13.5 56.2 37 -0.9 30.3 13.83 0.544
13:27 1012 29.88 842 24.86 13.4 56.2 39 -0.1 31.9 13.83 0.544
13:28 1012 29.88 842 24.86 13.3 56 40 0.1 32.2 13.75 0.541
13:29 1012 29.88 842 24.86 13.2 55.8 39 -0.5 31.1 13.66 0.538
13:30 1012 29.88 842 24.86 13.2 55.8 40 0.2 32.3 13.71 0.54
13:31 1012 29.88 842 24.86 13.5 56.3 41 0.6 33 13.85 0.545
13:32 1012 29.88 842 24.86 13.7 56.6 37 -0.7 30.8 14.08 0.554
13:33 1012 29.88 842 24.86 13.7 56.6 36 -1 30.3 14.09 0.555
13:34 1012 29.88 842 24.86 13.6 56.4 39 -0.2 31.6 13.96 0.55
13:35 1012 29.88 842 24.86 13.5 56.3 37 -1 30.2 13.91 0.548
13:36 1012 29.88 842 24.86 13.4 56.1 38 -0.4 31.3 13.82 0.544
13:37 1012 29.88 842 24.86 13.4 56 37 -0.9 30.5 13.77 0.542
13:38 1012 29.88 842 24.86 13.3 55.9 39 -0.3 31.4 13.7 0.539
13:39 1012 29.88 842 24.86 13.1 55.7 38 -0.9 30.5 13.57 0.534
13:40 1012 29.88 842 24.86 13 55.5 38 -0.7 30.7 13.48 0.531
13:41 1012 29.88 842 24.86 13 55.4 40 -0.1 31.9 13.45 0.53
13:42 1012 29.88 842 24.86 12.9 55.2 40 -0.2 31.7 13.33 0.525
13:43 1013 29.91 842 24.86 12.8 55 43 0.5 32.9 13.19 0.519
13:44 1013 29.91 842 24.86 12.6 54.6 44 0.8 33.4 13.02 0.513
13:45 1012 29.88 842 24.86 12.5 54.4 40 -0.5 31 12.9 0.508
13:46 1012 29.88 842 24.86 12.5 54.4 42 0 32.1 12.87 0.507
13:47 1013 29.91 842 24.86 12.4 54.2 43 0.2 32.3 12.8 0.504
13:48 1013 29.91 842 24.86 12.3 54.1 43 0.2 32.3 12.68 0.499
13:49 1013 29.91 842 24.86 12.1 53.8 45 0.5 32.9 12.57 0.495
13:50 1013 29.91 842 24.86 12.1 53.7 44 0.2 32.3 12.51 0.493
13:51 1013 29.91 842 24.86 12.2 53.9 44 0.5 32.9 12.56 0.494
13:52 1013 29.91 842 24.86 12.2 53.9 44 0.3 32.5 12.59 0.496
13:53 1013 29.91 842 24.86 12.2 54 42 -0.2 31.6 12.61 0.496
13:54 1013 29.91 842 24.86 12.3 54.1 43 0.2 32.3 12.67 0.499
13:55 1013 29.91 842 24.86 12.3 54.1 41 -0.6 30.9 12.7 0.5
13:56 1012 29.88 842 24.86 12.3 54.2 42 -0 32 12.75 0.502
13:57 1013 29.91 842 24.86 12.4 54.2 41 -0.4 31.3 12.73 0.501
13:58 1013 29.91 842 24.86 12.4 54.3 40 -0.7 30.8 12.79 0.504
13:59 1013 29.91 842 24.86 12.5 54.5 42 0 32 12.85 0.506
14:00 1013 29.91 842 24.86 12.5 54.5 40 -0.5 31 12.9 0.508
14:01 1013 29.91 842 24.86 12.6 54.6 40 -0.5 31 12.97 0.511
14:02 1013 29.91 842 24.86 12.6 54.7 40 -0.4 31.3 13.01 0.512
14:03 1013 29.91 842 24.86 12.6 54.7 42 0.1 32.1 13.03 0.513
14:04 1013 29.91 842 24.86 12.6 54.7 40 -0.7 30.7 13.06 0.514
14:05 1013 29.91 842 24.86 12.7 54.9 41 -0.2 31.6 13.07 0.515
14:06 1013 29.91 842 24.86 12.7 54.9 43 0.5 32.9 13.11 0.516
14:07 1013 29.91 842 24.86 12.7 54.8 43 0.5 32.9 13.09 0.515
14:08 1013 29.91 842 24.86 12.6 54.6 44 0.8 33.5 12.98 0.511
14:09 1013 29.91 842 24.86 12.3 54.1 47 1.2 34.2 12.76 0.502
14:10 1013 29.91 842 24.86 11.9 53.5 48 1.2 34.2 12.44 0.49
14:11 1013 29.91 842 24.86 11.7 53.1 49 1.3 34.3 12.22 0.481
14:12 1013 29.91 842 24.86 11.6 52.9 49 1.2 34.2 12.04 0.474
14:13 1013 29.91 842 24.86 11.6 52.9 45 0.2 32.3 12.05 0.474
14:14 1013 29.91 842 24.86 11.9 53.5 45 0.5 33 12.25 0.482
14:15 1013 29.91 842 24.86 12.2 54 43 0 32.1 12.61 0.496
14:16 1013 29.91 842 24.86 12.4 54.2 44 0.4 32.6 12.8 0.504
14:17 1013 29.91 842 24.86 12.5 54.5 45 0.8 33.5 12.89 0.507
14:18 1013 29.91 842 24.86 12.5 54.5 42 0.1 32.2 12.94 0.509
14:19 1013 29.91 842 24.86 12.7 54.8 42 0.2 32.4 13.06 0.514
14:20 1013 29.91 842 24.86 12.7 54.8 41 -0.3 31.5 13.11 0.516
14:21 1013 29.91 842 24.86 12.8 55 42 0.4 32.6 13.16 0.518
14:22 1013 29.91 842 24.86 12.8 55 41 -0.1 31.8 13.23 0.521
14:23 1013 29.91 842 24.86 12.9 55.2 40 -0.4 31.3 13.3 0.524
14:24 1013 29.91 842 24.86 13 55.4 40 -0.3 31.4 13.41 0.528
14:25 1013 29.91 842 24.86 13.1 55.5 39 -0.5 31.2 13.5 0.531
14:26 1013 29.91 842 24.86 13 55.4 41 0.1 32.2 13.42 0.528
14:27 1013 29.91 842 24.86 12.8 55.1 41 0.1 32.1 13.26 0.522
14:28 1013 29.91 842 24.86 12.7 54.9 41 -0.2 31.7 13.16 0.518
14:29 1013 29.91 842 24.86 12.6 54.7 44 0.8 33.4 13.09 0.515
14:30 1013 29.91 842 24.86 12.5 54.5 46 1.2 34.2 12.95 0.51
14:31 1013 29.91 842 24.86 12.4 54.3 45 1 33.8 12.89 0.507
14:32 1013 29.91 842 24.86 12.3 54.2 46 0.9 33.7 12.8 0.504
14:33 1013 29.91 842 24.86 12.3 54.2 41 -0.5 31 12.71 0.5
14:34 1013 29.91 842 24.86 12.5 54.4 43 0.2 32.3 12.85 0.506
14:35 1013 29.91 842 24.86 12.6 54.6 45 0.9 33.7 12.96 0.51
14:36 1013 29.91 842 24.86 12.6 54.7 44 0.8 33.4 13 0.512
14:37 1013 29.91 842 24.86 12.6 54.7 44 0.8 33.4 13.03 0.513
14:38 1013 29.91 842 24.86 12.6 54.7 44 0.8 33.5 13.05 0.514
14:39 1013 29.91 842 24.86 12.6 54.7 46 1.2 34.2 13.06 0.514
14:40 1013 29.91 842 24.86 12.6 54.7 44 0.8 33.5 13.03 0.513
14:41 1013 29.91 842 24.86 12.7 54.9 44 1 33.7 13.09 0.515
14:42 1013 29.91 842 24.86 12.9 55.2 40 -0.3 31.5 13.28 0.523
14:43 1013 29.91 842 24.86 13.1 55.6 38 -0.8 30.6 13.48 0.531
14:44 1013 29.91 842 24.86 13.3 56 41 0.4 32.7 13.7 0.539
14:45 1013 29.91 842 24.86 13.4 56 42 0.7 33.3 13.76 0.542
14:46 1013 29.91 842 24.86 13.4 56.1 41 0.5 32.8 13.73 0.541
14:47 1013 29.91 842 24.86 13.4 56.1 40 0.3 32.6 13.81 0.544
14:48 1013 29.91 842 24.86 13.5 56.3 39 -0.3 31.5 13.91 0.548
14:49 1013 29.91 842 24.86 13.7 56.6 37 -0.7 30.7 14.09 0.555
14:50 1013 29.91 842 24.86 14 57.2 36 -0.7 30.8 14.37 0.566
14:51 1013 29.91 842 24.86 14.3 57.7 38 0.3 32.6 14.65 0.577
14:52 1013 29.91 842 24.86 14.4 58 35 -0.7 30.7 14.8 0.583
14:53 1013 29.91 842 24.86 14.4 57.8 37 0 32.1 14.76 0.581
14:54 1013 29.91 842 24.86 14.3 57.7 38 0 32.1 14.67 0.578
14:55 1013 29.91 842 24.86 14.1 57.4 40 0.8 33.5 14.54 0.572
14:56 1013 29.91 842 24.86 13.9 57.1 38 -0.1 31.8 14.38 0.566
14:57 1013 29.91 842 24.86 13.8 56.8 38 -0.1 31.9 14.22 0.56
14:58 1013 29.91 842 24.86 13.6 56.6 40 0.3 32.6 14.05 0.553
14:59 1013 29.91 842 24.86 13.6 56.5 37 -0.6 30.8 13.98 0.55
15:00 1013 29.91 842 24.86 13.7 56.6 39 0.1 32.2 14.09 0.555
15:01 1013 29.91 842 24.86 13.8 56.8 38 -0.2 31.6 14.21 0.559
15:02 1013 29.91 842 24.86 13.9 57 38 -0 32 14.3 0.563
15:03 1013 29.91 842 24.86 13.9 57 38 -0 31.9 14.35 0.565
15:04 1013 29.91 842 24.86 13.9 57 38 -0.1 31.9 14.31 0.563
15:05 1013 29.91 842 24.86 13.9 56.9 37 -0.5 31.1 14.26 0.561
15:06 1013 29.91 842 24.86 13.9 56.9 38 0 32.1 14.25 0.561
15:07 1013 29.91 842 24.86 13.8 56.9 40 0.5 32.9 14.29 0.563
15:08 1013 29.91 842 24.86 13.7 56.7 43 1.4 34.6 14.19 0.559
15:09 1013 29.91 842 24.86 13.7 56.6 39 0.1 32.2 14.1 0.555
15:10 1013 29.91 842 24.86 13.6 56.5 39 -0.2 31.7 14.04 0.553
15:11 1013 29.91 842 24.86 13.6 56.5 39 -0.1 31.9 14.02 0.552
15:12 1013 29.91 842 24.86 13.6 56.5 40 0.4 32.8 14.02 0.552
15:13 1013 29.91 842 24.86 13.5 56.4 38 -0.6 31 13.97 0.55
15:14 1013 29.91 842 24.86 13.6 56.4 36 -1.1 30 13.93 0.548
15:15 1013 29.91 842 24.86 13.7 56.6 39 0.2 32.3 14.04 0.553
15:16 1013 29.91 842 24.86 13.5 56.4 40 0.4 32.8 13.96 0.55
15:17 1013 29.91 842 24.86 13.4 56.2 40 0.3 32.5 13.84 0.545
15:18 1013 29.91 842 24.86 13.4 56.1 40 0.3 32.5 13.8 0.543
15:19 1013 29.91 842 24.86 13.3 56 39 -0.4 31.3 13.7 0.539
15:20 1013 29.91 842 24.86 13.4 56.1 38 -0.6 30.9 13.71 0.54
15:21 1013 29.91 842 24.86 13.5 56.3 37 -0.8 30.6 13.87 0.546
15:22 1013 29.91 842 24.86 13.6 56.4 39 -0 31.9 13.97 0.55
15:23 1013 29.91 842 24.86 13.6 56.5 37 -0.6 30.9 14 0.551
15:24 1013 29.91 842 24.86 13.7 56.7 39 -0 31.9 14.12 0.556
15:25 1013 29.91 842 24.86 13.8 56.8 39 0.1 32.1 14.18 0.558
15:26 1013 29.91 842 24.86 13.8 56.8 39 0.2 32.4 14.17 0.558
15:27 1013 29.91 842 24.86 13.7 56.7 38 -0.2 31.7 14.12 0.556
15:28 1013 29.91 842 24.86 13.9 57 40 0.5 32.8 14.27 0.562
15:29 1013 29.91 842 24.86 14.3 57.7 32 -2 28.5 14.68 0.578
15:30 1013 29.91 842 24.86 14.6 58.3 35 -0.7 30.8 15.02 0.591
15:31 1013 29.91 842 24.86 14.8 58.7 35 -0.3 31.5 15.22 0.599
15:32 1013 29.91 842 24.86 14.9 58.8 35 -0.4 31.3 15.31 0.603
15:33 1013 29.91 842 24.86 14.9 58.8 33 -1.1 30 15.28 0.602
15:34 1013 29.91 842 24.86 14.9 58.7 34 -0.6 30.9 15.3 0.602
15:35 1013 29.91 842 24.86 15 59 36 0.2 32.3 15.42 0.607
15:36 1013 29.91 842 24.86 15.1 59.1 34 -0.5 31.2 15.55 0.612
15:37 1013 29.91 842 24.86 15.1 59.3 33 -0.7 30.7 15.57 0.613
15:38 1013 29.91 842 24.86 15.1 59.2 35 -0.2 31.7 15.57 0.613
15:39 1013 29.91 842 24.86 15.2 59.3 35 -0.3 31.5 15.6 0.614
15:40 1013 29.91 842 24.86 15.3 59.6 35 0.2 32.4 15.8 0.622
15:41 1013 29.91 842 24.86 15.5 59.8 36 0.8 33.4 15.93 0.627
15:42 1013 29.91 842 24.86 15.6 60.1 32 -0.8 30.5 16.08 0.633
15:43 1013 29.91 842 24.86 15.7 60.2 37 1 33.8 16.15 0.636
15:44 1013 29.91 842 24.86 15.6 60.1 34 0.1 32.2 16.06 0.632
15:45 1013 29.91 842 24.86 15.5 59.8 35 0.1 32.1 15.97 0.629
15:46 1013 29.91 842 24.86 15.5 59.9 33 -0.5 31.1 16 0.63
15:47 1013 29.91 842 24.86 15.5 59.8 33 -0.6 31 15.93 0.627
15:48 1013 29.91 842 24.86 15.4 59.6 34 -0.4 31.3 15.83 0.623
15:49 1013 29.91 842 24.86 15.3 59.6 35 -0 31.9 15.78 0.621
15:50 1013 29.91 842 24.86 15.4 59.7 33 -0.7 30.8 15.85 0.624
15:51 1013 29.91 842 24.86 15.6 60.1 35 0.3 32.5 16.05 0.632
15:52 1013 29.91 842 24.86 15.7 60.3 31 -1.1 30.1 16.16 0.636
15:53 1013 29.91 842 24.86 15.7 60.3 34 -0.1 31.8 16.17 0.637
15:54 1013 29.91 842 24.86 15.8 60.4 32 -1 30.2 16.24 0.639
15:55 1013 29.91 842 24.86 15.8 60.4 33 -0.5 31 16.23 0.639
15:56 1013 29.91 842 24.86 15.8 60.5 36 1 33.8 16.29 0.641
15:57 1013 29.91 842 24.86 15.9 60.7 36 0.9 33.6 16.44 0.647
15:58 1013 29.91 842 24.86 16 60.8 33 -0.3 31.5 16.49 0.649
15:59 1013 29.91 842 24.86 16 60.8 33 -0.2 31.6 16.49 0.649
16:00 1013 29.91 842 24.86 16 60.8 33 -0.2 31.6 16.48 0.649
16:01 1013 29.91 842 24.86 16 60.8 34 0.1 32.1 16.49 0.649
16:02 1013 29.91 842 24.86 16 60.8 33 -0.3 31.5 16.48 0.649
16:03 1013 29.91 842 24.86 16 60.8 31 -1 30.1 16.46 0.648
16:04 1013 29.91 842 24.86 15.9 60.6 34 0 32 16.36 0.644
16:05 1013 29.91 842 24.86 15.9 60.5 35 0.6 33.2 16.3 0.642
16:06 1013 29.91 842 24.86 15.8 60.4 35 0.4 32.8 16.29 0.641
16:07 1013 29.91 842 24.86 15.5 59.9 37 1 33.8 15.97 0.629
16:08 1013 29.91 842 24.86 15.2 59.3 38 1.1 34 15.67 0.617
16:09 1013 29.91 842 24.86 14.9 58.7 37 0.3 32.5 15.32 0.603
16:10 1013 29.91 842 24.86 14.6 58.2 38 0.6 33 15.05 0.593
16:11 1013 29.91 842 24.86 14.3 57.8 38 0.3 32.5 14.78 0.582
16:12 1013 29.91 842 24.86 14.1 57.5 39 0.3 32.6 14.59 0.574
16:13 1013 29.91 842 24.86 14 57.1 40 0.5 32.9 14.43 0.568
16:14 1013 29.91 842 24.86 13.8 56.8 40 0.5 32.9 14.25 0.561
16:15 1013 29.91 842 24.86 13.6 56.6 40 0.5 32.9 14.05 0.553
16:16 1013 29.91 842 24.86 13.5 56.2 43 1.2 34.1 13.94 0.549
16:17 1013 29.91 842 24.86 13.3 55.9 43 1.1 34 13.76 0.542
16:18 1013 29.91 842 24.86 13.1 55.7 43 0.8 33.5 13.57 0.534
16:19 1013 29.91 842 24.86 13 55.5 45 1.3 34.4 13.52 0.532
16:20 1013 29.91 842 24.86 13 55.4 41 0.2 32.4 13.43 0.529
16:21 1013 29.91 842 24.86 13.1 55.6 44 1.2 34.1 13.56 0.534
16:22 1013 29.91 842 24.86 13.2 55.7 44 1.2 34.1 13.56 0.534
16:23 1013 29.91 842 24.86 13.3 55.9 42 0.8 33.4 13.7 0.539
16:24 1013 29.91 842 24.86 13.3 56 42 0.8 33.4 13.75 0.541
16:25 1013 29.91 842 24.86 13.5 56.2 42 0.8 33.5 13.83 0.544
16:26 1013 29.91 842 24.86 13.7 56.6 41 0.9 33.6 14.01 0.552
16:27 1013 29.91 842 24.86 13.8 56.8 41 0.9 33.7 14.19 0.559
16:28 1013 29.91 842 24.86 13.9 57 42 1.1 34.1 14.26 0.561
16:29 1013 29.91 842 24.86 13.8 56.9 41 0.7 33.3 14.22 0.56
16:30 1013 29.91 842 24.86 13.7 56.7 42 1 33.8 14.15 0.557
16:31 1013 29.91 842 24.86 13.6 56.5 41 0.8 33.4 14.05 0.553
16:32 1013 29.91 842 24.86 13.5 56.2 42 0.9 33.7 13.88 0.546
16:33 1013 29.91 842 24.86 13.4 56.1 43 1 33.8 13.8 0.543
16:34 1013 29.91 842 24.86 13.3 56 41 0.5 32.9 13.74 0.541
16:35 1013 29.91 842 24.86 13.3 55.9 43 0.9 33.7 13.7 0.539
16:36 1013 29.91 842 24.86 13.2 55.8 43 0.9 33.5 13.62 0.536
16:37 1013 29.91 842 24.86 13.2 55.8 40 0.1 32.2 13.55 0.533
16:38 1013 29.91 842 24.86 13.3 55.9 42 0.6 33.1 13.66 0.538
16:39 1013 29.91 842 24.86 13.3 55.9 42 0.8 33.4 13.68 0.539
16:40 1013 29.91 842 24.86 13.2 55.8 42 0.6 33 13.63 0.537
16:41 1013 29.91 842 24.86 13.2 55.7 42 0.8 33.4 13.62 0.536
16:42 1013 29.91 842 24.86 13.1 55.6 43 1 33.9 13.53 0.533
16:43 1013 29.91 842 24.86 13.1 55.6 41 0.2 32.3 13.48 0.531
16:44 1013 29.91 842 24.86 13.3 55.9 39 -0.5 31.2 13.64 0.537
16:45 1013 29.91 842 24.86 13.4 56 40 0 32 13.71 0.54
16:46 1013 29.91 842 24.86 13.4 56 40 0.1 32.2 13.73 0.541
16:47 1013 29.91 842 24.86 13.4 56.2 38 -0.5 31.1 13.78 0.543
16:48 1013 29.91 842 24.86 13.5 56.3 38 -0.5 31.2 13.91 0.548
16:49 1013 29.91 842 24.86 13.6 56.4 39 0.1 32.2 13.92 0.548
16:50 1013 29.91 842 24.86 13.5 56.3 41 0.5 32.8 13.88 0.546
16:51 1013 29.91 842 24.86 13.3 56 41 0.4 32.8 13.75 0.541
16:52 1013 29.91 842 24.86 13.3 56 39 -0.2 31.6 13.72 0.54
16:53 1013 29.91 843 24.89 13.4 56 42 0.7 33.3 13.71 0.54
16:54 1013 29.91 843 24.89 13.2 55.8 40 -0.1 31.8 13.64 0.537
16:55 1013 29.91 843 24.89 13.3 55.9 40 -0 32 13.64 0.537
16:56 1013 29.91 843 24.89 13.2 55.8 40 0.1 32.3 13.61 0.536
16:57 1013 29.91 843 24.89 13.1 55.6 42 0.6 33.1 13.55 0.533
16:58 1013 29.91 843 24.89 13.1 55.6 42 0.5 32.9 13.47 0.53
16:59 1013 29.91 843 24.89 13.1 55.5 41 0.3 32.6 13.49 0.531
17:00 1013 29.91 843 24.89 13 55.3 43 0.8 33.4 13.37 0.526
17:01 1013 29.91 843 24.89 12.8 55.1 44 0.9 33.6 13.23 0.521
17:02 1013 29.91 843 24.89 12.8 55 42 0.3 32.6 13.17 0.519
17:03 1013 29.91 843 24.89 12.8 55 43 0.6 33.1 13.17 0.519
17:04 1013 29.91 843 24.89 12.7 54.9 44 0.9 33.6 13.08 0.515
17:05 1013 29.91 843 24.89 12.6 54.7 45 0.9 33.7 13.02 0.513
17:06 1013 29.91 843 24.89 12.6 54.7 45 1.1 34 12.95 0.51
17:07 1013 29.91 843 24.89 12.5 54.6 45 1 33.9 12.89 0.507
17:08 1013 29.91 843 24.89 12.5 54.5 44 0.8 33.4 12.93 0.509
17:09 1013 29.91 843 24.89 12.5 54.5 46 1.2 34.1 12.89 0.507
17:10 1013 29.91 843 24.89 12.4 54.4 46 1.1 34 12.84 0.506
17:11 1013 29.91 843 24.89 12.4 54.3 46 1.2 34.2 12.8 0.504
17:12 1013 29.91 843 24.89 12.3 54.2 47 1.3 34.4 12.78 0.503
17:13 1013 29.91 843 24.89 12.3 54.2 46 1.1 34.1 12.74 0.502
17:14 1013 29.91 843 24.89 12.3 54.2 46 1.2 34.2 12.74 0.502
17:15 1014 29.94 843 24.89 12.3 54.1 46 1.1 34 12.68 0.499
17:16 1013 29.91 843 24.89 12.3 54.1 45 0.8 33.5 12.65 0.498
17:17 1014 29.94 843 24.89 12.3 54.1 46 1.1 33.9 12.68 0.499
17:18 1014 29.94 843 24.89 12.3 54.1 47 1.5 34.6 12.69 0.5
17:19 1014 29.94 843 24.89 12.2 54 46 0.9 33.7 12.64 0.498
17:20 1014 29.94 843 24.89 12.2 54 48 1.4 34.6 12.59 0.496
17:21 1014 29.94 843 24.89 12.1 53.8 47 1.3 34.3 12.54 0.494
17:22 1014 29.94 843 24.89 12.1 53.7 48 1.5 34.7 12.45 0.49
17:23 1014 29.94 843 24.89 12 53.5 49 1.7 35 12.4 0.488
17:24 1014 29.94 843 24.89 11.8 53.3 49 1.5 34.8 12.24 0.482
17:25 1014 29.94 843 24.89 11.8 53.2 49 1.4 34.6 12.21 0.481
17:26 1014 29.94 843 24.89 11.8 53.2 50 1.8 35.3 12.2 0.48
17:27 1014 29.94 843 24.89 11.7 53 50 1.6 34.8 12.09 0.476
17:28 1014 29.94 843 24.89 11.6 52.9 51 1.8 35.2 12.02 0.473
17:29 1014 29.94 843 24.89 11.6 52.8 51 1.8 35.3 11.96 0.471
17:30 1014 29.94 843 24.89 11.5 52.8 52 2 35.5 11.95 0.47
17:31 1014 29.94 843 24.89 11.5 52.8 52 2.1 35.8 11.94 0.47
17:32 1014 29.94 843 24.89 11.5 52.6 52 2 35.6 11.86 0.467
17:33 1014 29.94 843 24.89 11.4 52.5 52 2.1 35.7 11.84 0.466
17:34 1014 29.94 843 24.89 11.4 52.5 52 2 35.6 11.75 0.463
17:35 1014 29.94 843 24.89 11.4 52.5 51 1.6 34.9 11.81 0.465
17:36 1014 29.94 843 24.89 11.4 52.6 51 1.7 35 11.83 0.466
17:37 1014 29.94 843 24.89 11.5 52.7 51 1.9 35.4 11.9 0.469
17:38 1014 29.94 843 24.89 11.5 52.7 50 1.6 34.9 11.92 0.469
17:39 1014 29.94 843 24.89 11.6 52.9 49 1.4 34.6 12.01 0.473
17:40 1014 29.94 843 24.89 11.7 53 50 1.6 35 12.12 0.477
17:41 1014 29.94 843 24.89 11.7 53.1 50 1.7 35 12.09 0.476
17:42 1014 29.94 843 24.89 11.7 53.1 50 1.7 35.1 12.08 0.476
17:43 1014 29.94 843 24.89 11.7 53 51 1.9 35.4 12.06 0.475
17:44 1014 29.94 843 24.89 11.6 52.9 51 1.9 35.4 12.01 0.473
17:45 1014 29.94 843 24.89 11.6 52.9 51 1.8 35.2 11.98 0.472
17:46 1014 29.94 843 24.89 11.6 52.8 51 1.9 35.3 11.98 0.472
17:47 1014 29.94 843 24.89 11.5 52.8 51 1.8 35.2 11.94 0.47
17:48 1014 29.94 843 24.89 11.6 52.8 52 2.1 35.8 11.94 0.47
17:49 1014 29.94 843 24.89 11.5 52.7 52 2 35.7 11.91 0.469
17:50 1014 29.94 843 24.89 11.5 52.6 52 2.1 35.7 11.87 0.467
17:51 1014 29.94 843 24.89 11.4 52.6 53 2.2 35.9 11.85 0.467
17:52 1014 29.94 843 24.89 11.4 52.6 53 2.3 36.2 11.8 0.465
17:53 1014 29.94 843 24.89 11.4 52.5 55 2.7 36.9 11.79 0.464
17:54 1014 29.94 843 24.89 11.3 52.4 54 2.4 36.4 11.76 0.463
17:55 1014 29.94 843 24.89 11.4 52.5 54 2.4 36.4 11.81 0.465
17:56 1014 29.94 843 24.89 11.5 52.7 51 1.7 35.1 11.88 0.468
17:57 1014 29.94 843 24.89 11.7 53 52 2.1 35.7 11.99 0.472
17:58 1014 29.94 843 24.89 11.8 53.3 52 2.4 36.4 12.15 0.478
17:59 1014 29.94 843 24.89 11.9 53.5 51 2.2 36 12.31 0.485
18:00 1014 29.94 843 24.89 12 53.7 51 2.2 36 12.4 0.488
18:01 1014 29.94 844 24.92 12.1 53.8 51 2.4 36.2 12.46 0.491
18:02 1014 29.94 844 24.92 12.1 53.8 49 1.7 35.1 12.46 0.491
18:03 1014 29.94 844 24.92 12.1 53.8 49 1.9 35.4 12.43 0.489
18:04 1014 29.94 844 24.92 12.1 53.7 49 1.8 35.2 12.41 0.489
18:05 1014 29.94 844 24.92 12 53.6 50 1.9 35.5 12.38 0.487
18:06 1014 29.94 844 24.92 11.9 53.5 50 1.9 35.4 12.33 0.485
18:07 1014 29.94 844 24.92 11.9 53.4 51 2.1 35.7 12.24 0.482
18:08 1014 29.94 844 24.92 11.7 53.1 52 2.2 36 12.13 0.478
18:09 1015 29.97 844 24.92 11.5 52.8 53 2.5 36.4 11.99 0.472
18:10 1014 29.94 844 24.92 11.5 52.6 52 2.1 35.8 11.88 0.468
18:11 1014 29.94 844 24.92 11.5 52.6 52 1.9 35.5 11.87 0.467
18:12 1014 29.94 844 24.92 11.5 52.6 54 2.4 36.4 11.83 0.466
18:13 1015 29.97 844 24.92 11.3 52.4 55 2.6 36.8 11.75 0.463
18:14 1015 29.97 844 24.92 11.1 51.9 56 2.8 37 11.5 0.453
18:15 1015 29.97 844 24.92 10.9 51.5 57 2.8 37.1 11.28 0.444
18:16 1015 29.97 844 24.92 10.6 51.2 58 2.8 37.1 11.11 0.437
18:17 1015 29.97 844 24.92 10.5 50.8 60 3 37.3 10.91 0.43
18:18 1015 29.97 844 24.92 10.2 50.4 61 3.1 37.6 10.68 0.42
18:19 1015 29.97 844 24.92 10 50 61 3 37.3 10.45 0.411
18:20 1015 29.97 844 24.92 9.9 49.8 63 3.2 37.7 10.33 0.407
18:21 1015 29.97 844 24.92 9.7 49.4 63 3.1 37.6 10.16 0.4
18:22 1015 29.97 844 24.92 9.6 49.2 64 3.2 37.7 10.01 0.394
18:23 1015 29.97 844 24.92 9.4 48.9 65 3.1 37.7 9.89 0.389
18:24 1015 29.97 844 24.92 9.3 48.8 65 3.2 37.7 9.76 0.384
18:25 1015 29.97 844 24.92 9.3 48.7 65 3.1 37.6 9.68 0.381
18:26 1015 29.97 844 24.92 9.2 48.5 65 3.1 37.6 9.64 0.38
18:27 1015 29.97 844 24.92 9.1 48.4 66 3.1 37.7 9.56 0.376
18:28 1015 29.97 844 24.92 9.1 48.3 66 3.1 37.6 9.49 0.374
18:29 1015 29.97 844 24.92 8.9 48.1 67 3.1 37.5 9.37 0.369
18:30 1015 29.97 844 24.92 8.8 47.9 67 3.1 37.7 9.28 0.365
18:31 1015 29.97 844 24.92 8.7 47.6 68 3.2 37.7 9.16 0.361
18:32 1015 29.97 844 24.92 8.6 47.5 68 3.1 37.6 9.02 0.355
18:33 1015 29.97 844 24.92 8.5 47.3 69 3.1 37.5 8.93 0.352
18:34 1015 29.97 844 24.92 8.4 47.2 69 3.1 37.6 8.86 0.349
18:35 1015 29.97 844 24.92 8.4 47.1 69 3.1 37.6 8.79 0.346
18:36 1015 29.97 844 24.92 8.3 47 69 3 37.5 8.73 0.344
18:37 1015 29.97 844 24.92 8.3 46.9 69 2.9 37.2 8.72 0.343
18:38 1015 29.97 844 24.92 8.4 47.1 68 2.9 37.2 8.77 0.345
18:39 1015 29.97 844 24.92 8.5 47.2 68 3 37.4 8.85 0.348
18:40 1015 29.97 844 24.92 8.4 47.1 69 3 37.4 8.82 0.347
18:41 1015 29.97 844 24.92 8.4 47.1 69 3.1 37.6 8.81 0.347
18:42 1015 29.97 844 24.92 8.3 46.9 70 3.1 37.6 8.71 0.343
18:43 1015 29.97 844 24.92 8.2 46.8 70 3.1 37.5 8.6 0.339
18:44 1015 29.97 844 24.92 8.2 46.8 69 2.9 37.2 8.63 0.34
18:45 1015 29.97 844 24.92 8.3 47 69 3 37.3 8.68 0.342
18:46 1015 29.97 844 24.92 8.3 47 69 3 37.5 8.74 0.344
18:47 1015 29.97 844 24.92 8.2 46.8 70 3 37.4 8.62 0.339
18:48 1015 29.97 844 24.92 8.2 46.7 70 3 37.4 8.54 0.336
18:49 1015 29.97 844 24.92 8.1 46.6 69 2.9 37.2 8.49 0.334
18:50 1015 29.97 844 24.92 8.1 46.6 70 2.9 37.2 8.47 0.333
18:51 1015 29.97 844 24.92 8 46.4 70 2.9 37.1 8.47 0.333
18:52 1015 29.97 844 24.92 8 46.4 70 2.9 37.2 8.42 0.331
18:53 1015 29.97 844 24.92 7.9 46.2 70 2.9 37.2 8.32 0.328
18:54 1015 29.97 844 24.92 7.8 46.1 71 2.8 37.1 8.29 0.326
18:55 1015 29.97 844 24.92 7.8 46 71 2.9 37.1 8.23 0.324
18:56 1015 29.97 844 24.92 7.8 46 71 2.9 37.2 8.21 0.323
18:57 1015 29.97 844 24.92 7.8 46 71 2.8 37.1 8.18 0.322
18:58 1015 29.97 844 24.92 7.8 46 71 2.8 37.1 8.21 0.323
18:59 1015 29.97 844 24.92 7.9 46.2 71 2.9 37.2 8.23 0.324
19:00 1015 29.97 844 24.92 7.9 46.1 71 2.9 37.1 8.23 0.324
19:01 1015 29.97 844 24.92 7.9 46.1 71 2.9 37.2 8.27 0.326
19:02 1015 29.97 844 24.92 7.8 46.1 71 2.9 37.2 8.22 0.324
19:03 1015 29.97 844 24.92 7.8 46 71 2.9 37.3 8.19 0.322
19:04 1015 29.97 844 24.92 7.7 45.9 72 3 37.4 8.12 0.32
19:05 1015 29.97 844 24.92 7.6 45.7 72 3 37.4 8.01 0.315
19:06 1015 29.97 844 24.92 7.5 45.5 73 3 37.4 7.87 0.31
19:07 1015 29.97 844 24.92 7.4 45.2 73 2.9 37.3 7.79 0.307
19:08 1015 29.97 844 24.92 7.3 45.1 74 2.9 37.2 7.68 0.302
19:09 1015 29.97 844 24.92 7.1 44.8 74 2.8 37.1 7.53 0.296
19:10 1015 29.97 844 24.92 7 44.6 75 2.9 37.2 7.41 0.292
19:11 1015 29.97 844 24.92 6.9 44.3 76 2.9 37.2 7.3 0.287
19:12 1015 29.97 844 24.92 6.8 44.2 77 2.9 37.3 7.19 0.283
19:13 1015 29.97 844 24.92 6.7 44.1 77 2.9 37.2 7.15 0.281
19:14 1015 29.97 844 24.92 6.8 44.2 76 2.9 37.2 7.2 0.283
19:15 1015 29.97 844 24.92 6.9 44.4 76 3 37.3 7.29 0.287
19:16 1015 29.97 844 24.92 6.9 44.4 76 3 37.4 7.36 0.29
19:17 1015 29.97 844 24.92 6.9 44.4 76 3 37.4 7.33 0.289
19:18 1015 29.97 844 24.92 7 44.5 76 3.1 37.6 7.34 0.289
19:19 1015 29.97 844 24.92 6.9 44.4 76 2.9 37.3 7.31 0.288
19:20 1015 29.97 844 24.92 7 44.6 73 2.5 36.6 7.4 0.291
19:21 1015 29.97 844 24.92 7.6 45.6 70 2.4 36.4 7.85 0.309
19:22 1015 29.97 844 24.92 8 46.3 69 2.7 36.9 8.21 0.323
19:23 1015 29.97 844 24.92 8 46.3 70 2.8 37.1 8.31 0.327
19:24 1015 29.97 844 24.92 7.8 46.1 71 3 37.4 8.21 0.323
19:25 1015 29.97 844 24.92 7.6 45.7 72 2.9 37.2 8.03 0.316
19:26 1015 29.97 844 24.92 7.5 45.5 72 2.9 37.1 7.88 0.31
19:27 1015 29.97 844 24.92 7.4 45.3 73 2.8 37.1 7.81 0.307
19:28 1015 29.97 844 24.92 7.3 45.1 73 2.8 37 7.72 0.304
19:29 1015 29.97 845 24.95 7.2 45 73 2.8 37 7.67 0.302
19:30 1015 29.97 845 24.95 7.2 45 74 2.8 37.1 7.63 0.3
19:31 1015 29.97 845 24.95 7.2 45 74 2.9 37.1 7.57 0.298
19:32 1015 29.97 845 24.95 7.2 45 74 2.8 37.1 7.61 0.3
19:33 1016 30 845 24.95 7.2 44.9 74 2.9 37.2 7.61 0.3
19:34 1016 30 845 24.95 7.1 44.7 75 3 37.3 7.49 0.295
19:35 1016 30 845 24.95 6.9 44.5 76 3 37.4 7.4 0.291
19:36 1016 30 845 24.95 6.8 44.2 77 3 37.4 7.25 0.285
19:37 1016 30 845 24.95 6.7 44.1 77 3 37.4 7.17 0.282
19:38 1016 30 845 24.95 6.6 43.9 78 3 37.4 7.09 0.279
19:39 1016 30 845 24.95 6.7 44 77 3 37.4 7.09 0.279
19:40 1016 30 845 24.95 6.8 44.2 76 2.9 37.2 7.19 0.283
19:41 1016 30 845 24.95 7 44.6 75 2.8 37.1 7.39 0.291
19:42 1016 30 845 24.95 7.2 45 73 2.8 37 7.59 0.299
19:43 1016 30 845 24.95 7.4 45.4 74 3 37.5 7.81 0.307
19:44 1016 30 845 24.95 7.8 46 74 3.4 38.1 8.11 0.319
19:45 1016 30 845 24.95 8.1 46.5 73 3.5 38.2 8.44 0.332
19:46 1016 30 845 24.95 8.3 47 73 3.8 38.8 8.67 0.341
19:47 1016 30 846 24.98 8.4 47 65 2.2 36 8.77 0.345
19:48 1017 30.03 846 24.98 8.5 47.4 63 2 35.6 8.97 0.353
19:49 1017 30.03 846 24.98 8.6 47.6 60 1.4 34.5 9.04 0.356
19:50 1016 30 846 24.98 8.9 48 62 2.1 35.7 9.21 0.363
19:51 1016 30 846 24.98 9.2 48.5 62 2.4 36.3 9.39 0.37
19:52 1016 30 846 24.98 9.3 48.7 63 2.7 36.9 9.46 0.372
19:53 1016 30 846 24.98 9.2 48.6 65 3.1 37.5 9.43 0.371
19:54 1016 30 846 24.98 9.1 48.3 67 3.3 37.9 9.3 0.366
19:55 1016 30 846 24.98 8.9 48 69 3.6 38.4 9.19 0.362
19:56 1016 30 846 24.98 8.7 47.6 71 3.8 38.8 8.92 0.351
19:57 1016 30 846 24.98 8.5 47.2 72 3.7 38.7 8.73 0.344
19:58 1017 30.03 846 24.98 8.3 46.9 73 3.8 38.9 8.61 0.339
19:59 1017 30.03 846 24.98 8.2 46.7 74 3.8 38.9 8.5 0.335
20:00 1017 30.03 846 24.98 8.1 46.6 75 4 39.3 8.43 0.332
20:01 1017 30.03 846 24.98 8 46.4 76 4.1 39.4 8.38 0.33
20:02 1017 30.03 846 24.98 7.9 46.2 77 4.2 39.5 8.24 0.324
20:03 1017 30.03 846 24.98 7.8 46.1 78 4.2 39.5 8.2 0.323
20:04 1017 30.03 846 24.98 7.8 46 79 4.3 39.8 8.13 0.32
20:05 1017 30.03 846 24.98 7.7 45.8 80 4.5 40 8.08 0.318
20:06 1017 30.03 846 24.98 7.6 45.6 81 4.5 40.1 7.98 0.314
20:07 1017 30.03 846 24.98 7.4 45.4 81 4.3 39.8 7.86 0.309
20:08 1017 30.03 846 24.98 7.4 45.4 81 4.4 39.9 7.76 0.306
20:09 1017 30.03 846 24.98 7.4 45.2 81 4.4 39.9 7.73 0.304
20:10 1017 30.03 846 24.98 7.3 45.2 81 4.3 39.7 7.72 0.304
20:11 1017 30.03 846 24.98 7.3 45.2 80 4.2 39.5 7.72 0.304
20:12 1017 30.03 846 24.98 7.4 45.2 79 4 39.3 7.69 0.303
20:13 1017 30.03 846 24.98 7.4 45.4 79 4.1 39.3 7.75 0.305
20:14 1017 30.03 846 24.98 7.6 45.6 79 4.1 39.4 7.77 0.306
20:15 1017 30.03 846 24.98 7.6 45.6 78 4 39.2 7.84 0.309
20:16 1017 30.03 846 24.98 7.5 45.6 78 4 39.2 7.84 0.309
20:17 1017 30.03 846 24.98 7.6 45.7 73 3.1 37.6 7.84 0.309
20:18 1017 30.03 846 24.98 7.9 46.3 71 3 37.4 8.17 0.322
20:19 1017 30.03 846 24.98 8.3 47 68 2.9 37.2 8.52 0.335
20:20 1017 30.03 846 24.98 8.5 47.4 71 3.6 38.4 8.77 0.345
20:21 1017 30.03 846 24.98 8.4 47.2 72 3.7 38.6 8.73 0.344
20:22 1017 30.03 846 24.98 8.3 46.9 73 3.7 38.7 8.61 0.339
20:23 1017 30.03 846 24.98 8.2 46.7 74 3.9 39 8.5 0.335
20:24 1017 30.03 846 24.98 8 46.4 75 3.8 38.9 8.37 0.33
20:25 1017 30.03 846 24.98 7.9 46.3 75 3.8 38.9 8.28 0.326
20:26 1017 30.03 846 24.98 7.9 46.3 74 3.6 38.5 8.25 0.325
20:27 1017 30.03 846 24.98 8 46.3 73 3.4 38.1 8.29 0.326
20:28 1017 30.03 847 25.01 8.1 46.6 71 3.2 37.8 8.39 0.33
20:29 1017 30.03 847 25.01 8.1 46.5 72 3.3 37.9 8.43 0.332
20:30 1017 30.03 847 25.01 8.1 46.6 72 3.5 38.2 8.41 0.331
20:31 1017 30.03 847 25.01 8.1 46.5 74 3.7 38.7 8.37 0.33
20:32 1017 30.03 847 25.01 7.9 46.3 74 3.5 38.4 8.26 0.325
20:33 1017 30.03 847 25.01 7.9 46.2 73 3.4 38.1 8.23 0.324
20:34 1017 30.03 847 25.01 7.9 46.2 73 3.4 38.2 8.19 0.322
20:35 1018 30.06 847 25.01 7.9 46.2 74 3.6 38.4 8.23 0.324
20:36 1018 30.06 847 25.01 7.8 46 75 3.6 38.5 8.13 0.32
20:37 1018 30.06 847 25.01 7.6 45.7 75 3.4 38.2 8.03 0.316
20:38 1018 30.06 847 25.01 7.6 45.8 75 3.6 38.4 7.97 0.314
20:39 1018 30.06 847 25.01 7.6 45.7 75 3.5 38.4 7.97 0.314
20:40 1018 30.06 847 25.01 7.6 45.7 76 3.6 38.4 7.93 0.312
20:41 1018 30.06 847 25.01 7.5 45.6 75 3.4 38.2 7.91 0.311
20:42 1018 30.06 847 25.01 7.5 45.5 77 3.7 38.6 7.87 0.31
20:43 1018 30.06 847 25.01 7.4 45.4 78 3.8 38.9 7.84 0.309
20:44 1018 30.06 847 25.01 7.3 45.2 79 3.9 39 7.77 0.306
20:45 1018 30.06 847 25.01 7.2 45 80 4 39.2 7.66 0.302
20:46 1018 30.06 847 25.01 7.1 44.8 81 4.1 39.4 7.59 0.299
20:47 1018 30.06 847 25.01 7 44.6 82 4.1 39.5 7.45 0.293
20:48 1018 30.06 847 25.01 6.9 44.4 83 4.3 39.7 7.37 0.29
20:49 1018 30.06 847 25.01 6.8 44.3 83 4.1 39.5 7.27 0.286
20:50 1018 30.06 847 25.01 6.8 44.2 83 4.1 39.5 7.26 0.286
20:51 1018 30.06 847 25.01 6.8 44.2 84 4.2 39.5 7.22 0.284
20:52 1018 30.06 847 25.01 6.8 44.2 84 4.3 39.8 7.19 0.283
20:53 1018 30.06 847 25.01 6.7 44.1 85 4.3 39.7 7.14 0.281
20:54 1018 30.06 847 25.01 6.6 43.9 85 4.3 39.8 7.09 0.279
20:55 1018 30.06 847 25.01 6.6 43.9 85 4.3 39.7 7.05 0.278
20:56 1018 30.06 847 25.01 6.7 44 85 4.3 39.7 7.14 0.281
20:57 1018 30.06 847 25.01 6.7 44 84 4.2 39.6 7.15 0.281
20:58 1018 30.06 847 25.01 6.7 44.1 84 4.3 39.7 7.14 0.281
20:59 1018 30.06 847 25.01 6.7 44.1 85 4.3 39.8 7.1 0.28
21:00 1018 30.06 847 25.01 6.7 44.1 85 4.4 39.9 7.14 0.281
21:01 1018 30.06 847 25.01 6.7 44 85 4.3 39.8 7.1 0.28
21:02 1018 30.06 847 25.01 6.6 43.9 85 4.3 39.8 7.08 0.279
21:03 1018 30.06 847 25.01 6.6 43.9 85 4.2 39.6 7.04 0.277
21:04 1018 30.06 847 25.01 6.6 43.9 85 4.2 39.5 7 0.276
21:05 1018 30.06 847 25.01 6.6 43.8 85 4.2 39.6 6.974 0.275
21:06 1018 30.06 847 25.01 6.4 43.6 85 4.2 39.5 6.861 0.27
21:07 1018 30.06 847 25.01 6.3 43.4 86 4.1 39.4 6.759 0.266
21:08 1018 30.06 847 25.01 6.1 43.1 86 4 39.3 6.651 0.262
21:09 1018 30.06 847 25.01 6.1 42.9 87 4 39.3 6.533 0.257
21:10 1018 30.06 847 25.01 6 42.7 87 4 39.2 6.414 0.253
21:11 1018 30.06 847 25.01 5.9 42.6 88 4 39.2 6.335 0.249
21:12 1018 30.06 847 25.01 5.8 42.4 88 3.9 39.1 6.21 0.244
21:13 1018 30.06 847 25.01 5.7 42.3 88 3.9 39.1 6.165 0.243
21:14 1018 30.06 847 25.01 5.7 42.3 88 3.9 39.1 6.12 0.241
21:15 1018 30.06 847 25.01 5.7 42.2 88 3.9 38.9 6.103 0.24
21:16 1018 30.06 847 25.01 5.6 42.1 88 3.8 38.9 6.035 0.238
21:17 1018 30.06 847 25.01 5.6 42 89 3.8 38.9 5.984 0.236
21:18 1018 30.06 847 25.01 5.5 41.9 89 3.8 38.9 5.956 0.234
21:19 1018 30.06 847 25.01 5.5 41.9 89 3.8 38.8 5.95 0.234
21:20 1018 30.06 848 25.04 5.5 41.9 88 3.7 38.7 5.939 0.234
21:21 1018 30.06 848 25.04 5.5 41.9 88 3.7 38.7 5.967 0.235
21:22 1018 30.06 848 25.04 5.6 42.1 88 3.7 38.7 5.979 0.235
21:23 1018 30.06 848 25.04 5.6 42.1 87 3.7 38.6 6.024 0.237
21:24 1018 30.06 848 25.04 5.7 42.2 87 3.7 38.7 6.035 0.238
21:25 1018 30.06 848 25.04 5.6 42.2 87 3.7 38.6 6.035 0.238
21:26 1018 30.06 847 25.01 5.7 42.2 87 3.7 38.6 6.041 0.238
21:27 1018 30.06 847 25.01 5.6 42.2 87 3.7 38.6 6.069 0.239
21:28 1018 30.06 847 25.01 5.6 42.1 87 3.6 38.5 6.03 0.237
21:29 1018 30.06 847 25.01 5.6 42.1 87 3.7 38.6 5.99 0.236
21:30 1018 30.06 848 25.04 5.6 42.1 87 3.7 38.6 6.041 0.238
21:31 1018 30.06 848 25.04 5.6 42 87 3.7 38.6 6.007 0.236
21:32 1018 30.06 848 25.04 5.6 42 88 3.7 38.7 5.973 0.235
21:33 1018 30.06 848 25.04 5.6 42 88 3.8 38.8 6.007 0.236
21:34 1018 30.06 848 25.04 5.6 42 88 3.8 38.8 6.013 0.237
21:35 1018 30.06 848 25.04 5.6 42.1 88 3.8 38.8 6.047 0.238
21:36 1018 30.06 848 25.04 5.7 42.3 88 3.8 38.9 6.092 0.24
21:37 1018 30.06 848 25.04 5.9 42.6 87 3.9 38.9 6.199 0.244
21:38 1018 30.06 848 25.04 5.9 42.6 87 3.8 38.9 6.318 0.249
21:39 1018 30.06 848 25.04 6 42.7 86 3.8 38.9 6.38 0.251
21:40 1018 30.06 848 25.04 6.1 42.9 86 3.9 39 6.431 0.253
21:41 1018 30.06 848 25.04 6.2 43.1 85 3.9 38.9 6.505 0.256
21:42 1018 30.06 848 25.04 6.2 43.2 85 3.9 39 6.55 0.258
21:43 1018 30.06 848 25.04 6.2 43.2 85 3.9 39 6.612 0.26
21:44 1018 30.06 848 25.04 6.2 43.2 85 3.8 38.9 6.612 0.26
21:45 1018 30.06 848 25.04 6.3 43.3 84 3.8 38.8 6.612 0.26
21:46 1018 30.06 848 25.04 6.3 43.3 84 3.8 38.8 6.675 0.263
21:47 1018 30.06 848 25.04 6.4 43.5 83 3.7 38.7 6.692 0.263
21:48 1019 30.09 848 25.04 6.4 43.6 83 3.7 38.7 6.754 0.266
21:49 1019 30.09 848 25.04 6.4 43.6 83 3.7 38.7 6.816 0.268
21:50 1019 30.09 848 25.04 6.5 43.7 83 3.8 38.8 6.816 0.268
21:51 1019 30.09 848 25.04 6.4 43.6 83 3.7 38.7 6.799 0.268
21:52 1019 30.09 848 25.04 6.5 43.6 82 3.6 38.5 6.867 0.27
21:53 1019 30.09 848 25.04 6.5 43.7 82 3.6 38.6 6.861 0.27
21:54 1019 30.09 848 25.04 6.5 43.7 82 3.7 38.7 6.867 0.27
21:55 1019 30.09 848 25.04 6.5 43.7 83 3.7 38.7 6.81 0.268
21:56 1019 30.09 848 25.04 6.4 43.6 82 3.7 38.6 6.799 0.268
21:57 1019 30.09 848 25.04 6.5 43.6 82 3.7 38.7 6.833 0.269
21:58 1019 30.09 848 25.04 6.5 43.6 83 3.7 38.7 6.805 0.268
21:59 1019 30.09 848 25.04 6.4 43.5 83 3.8 38.8 6.799 0.268
22:00 1019 30.09 848 25.04 6.4 43.5 83 3.7 38.6 6.765 0.266
22:01 1019 30.09 848 25.04 6.3 43.3 83 3.6 38.5 6.725 0.265
22:02 1019 30.09 848 25.04 6.3 43.4 83 3.7 38.6 6.737 0.265
22:03 1019 30.09 848 25.04 6.3 43.4 83 3.7 38.7 6.742 0.265
22:04 1019 30.09 848 25.04 6.3 43.4 83 3.7 38.6 6.72 0.265
22:05 1019 30.09 848 25.04 6.3 43.3 84 3.7 38.6 6.68 0.263
22:06 1018 30.06 848 25.04 6.3 43.3 83 3.7 38.6 6.652 0.262
22:07 1018 30.06 848 25.04 6.2 43.2 83 3.6 38.5 6.641 0.261
22:08 1018 30.06 848 25.04 6.2 43.2 83 3.6 38.4 6.652 0.262
22:09 1018 30.06 848 25.04 6.2 43.2 83 3.5 38.3 6.675 0.263
22:10 1018 30.06 848 25.04 6.2 43.1 83 3.5 38.2 6.612 0.26
22:11 1018 30.06 848 25.04 6.2 43.2 83 3.5 38.3 6.612 0.26
22:12 1018 30.06 848 25.04 6.2 43.2 82 3.4 38.2 6.607 0.26
22:13 1018 30.06 848 25.04 6.3 43.3 82 3.4 38 6.635 0.261
22:14 1018 30.06 848 25.04 6.4 43.4 81 3.3 38 6.714 0.264
22:15 1018 30.06 847 25.01 6.4 43.5 81 3.4 38.1 6.771 0.267
22:16 1018 30.06 847 25.01 6.4 43.5 81 3.4 38 6.782 0.267
22:17 1018 30.06 847 25.01 6.3 43.4 81 3.2 37.8 6.697 0.264
22:18 1018 30.06 847 25.01 6.3 43.3 81 3.2 37.8 6.686 0.263
22:19 1018 30.06 847 25.01 6.3 43.3 81 3.2 37.7 6.663 0.262
22:20 1018 30.06 848 25.04 6.3 43.3 80 3.1 37.6 6.647 0.262
22:21 1018 30.06 848 25.04 6.2 43.2 80 3.1 37.5 6.659 0.262
22:22 1018 30.06 848 25.04 6.3 43.3 80 3.1 37.6 6.631 0.261
22:23 1018 30.06 848 25.04 6.1 43.1 81 3.1 37.7 6.563 0.258
22:24 1018 30.06 848 25.04 6.1 43 81 3 37.4 6.496 0.256
22:25 1018 30.06 848 25.04 6.1 43 81 3 37.5 6.502 0.256
22:26 1018 30.06 848 25.04 6.1 43 80 3 37.5 6.531 0.257
22:27 1018 30.06 848 25.04 6.1 43.1 80 3 37.4 6.554 0.258
22:28 1019 30.09 848 25.04 6.1 43.1 80 3 37.5 6.526 0.257
22:29 1019 30.09 848 25.04 6.1 43 81 3.1 37.5 6.554 0.258
22:30 1019 30.09 848 25.04 6.1 42.9 81 3.1 37.5 6.476 0.255
22:31 1019 30.09 848 25.04 6.1 42.9 81 3.1 37.5 6.453 0.254
22:32 1019 30.09 848 25.04 6 42.9 81 3.1 37.5 6.419 0.253
22:33 1019 30.09 848 25.04 6 42.8 81 3 37.4 6.408 0.252
22:34 1019 30.09 848 25.04 6.1 42.9 80 3 37.3 6.437 0.253
22:35 1019 30.09 848 25.04 6.1 43 80 3 37.4 6.51 0.256
22:36 1019 30.09 848 25.04 6.1 43 80 3 37.4 6.477 0.255
22:37 1019 30.09 848 25.04 6.1 43 80 3 37.4 6.477 0.255
22:38 1019 30.09 848 25.04 6.1 43 80 3 37.4 6.511 0.256
22:39 1019 30.09 848 25.04 6.2 43.1 80 3 37.4 6.511 0.256
22:40 1019 30.09 848 25.04 6.1 43.1 80 3 37.5 6.539 0.257
22:41 1019 30.09 848 25.04 6.2 43.1 81 3.1 37.6 6.557 0.258
22:42 1019 30.09 848 25.04 6.1 43 81 3.1 37.5 6.517 0.257
22:43 1019 30.09 848 25.04 6.1 43 80 2.9 37.3 6.5 0.256
22:44 1019 30.09 848 25.04 6.1 42.9 80 2.9 37.2 6.478 0.255
22:45 1019 30.09 848 25.04 6.1 43 80 3 37.4 6.512 0.256
22:46 1019 30.09 848 25.04 6.1 43 80 2.9 37.3 6.478 0.255
22:47 1019 30.09 848 25.04 6.1 42.9 79 2.8 37 6.45 0.254
22:48 1019 30.09 848 25.04 6.1 43 79 2.8 37.1 6.461 0.254
22:49 1019 30.09 848 25.04 6.1 42.9 80 2.8 37.1 6.467 0.255
22:50 1019 30.09 848 25.04 6.1 43 80 2.9 37.1 6.467 0.255
22:51 1019 30.09 848 25.04 6 42.9 80 2.8 37 6.422 0.253
22:52 1019 30.09 848 25.04 6 42.8 80 2.8 37.1 6.388 0.251
22:53 1019 30.09 848 25.04 6 42.8 80 2.8 37 6.36 0.25
22:54 1019 30.09 848 25.04 6 42.8 79 2.7 36.8 6.365 0.251
22:55 1019 30.09 848 25.04 6 42.8 79 2.6 36.6 6.343 0.25
22:56 1019 30.09 848 25.04 6 42.8 78 2.5 36.5 6.388 0.251
22:57 1019 30.09 848 25.04 6.1 42.9 78 2.5 36.6 6.428 0.253
22:58 1019 30.09 848 25.04 6.1 42.9 78 2.6 36.6 6.467 0.255
22:59 1019 30.09 848 25.04 6.1 42.9 78 2.6 36.6 6.45 0.254
23:00 1019 30.09 848 25.04 6 42.9 78 2.6 36.6 6.433 0.253
23:01 1019 30.09 848 25.04 6 42.9 78 2.5 36.6 6.416 0.253
23:02 1019 30.09 848 25.04 6.1 42.9 77 2.4 36.4 6.445 0.254
23:03 1019 30.09 848 25.04 6.1 43 77 2.5 36.5 6.518 0.257
23:04 1019 30.09 848 25.04 6.2 43.1 77 2.5 36.4 6.541 0.258
23:05 1019 30.09 848 25.04 6.2 43.2 76 2.4 36.3 6.58 0.259
23:06 1019 30.09 848 25.04 6.3 43.3 77 2.5 36.5 6.62 0.261
23:07 1019 30.09 848 25.04 6.2 43.2 78 2.6 36.7 6.626 0.261
23:08 1019 30.09 848 25.04 6.1 42.9 78 2.5 36.4 6.552 0.258
23:09 1019 30.09 848 25.04 6.1 42.9 78 2.6 36.6 6.462 0.254
23:10 1019 30.09 848 25.04 6 42.8 78 2.5 36.5 6.411 0.252
23:11 1019 30.09 848 25.04 6 42.8 78 2.4 36.3 6.394 0.252
23:12 1019 30.09 848 25.04 6.1 42.9 78 2.5 36.5 6.439 0.254
23:13 1019 30.09 848 25.04 6 42.8 79 2.6 36.6 6.439 0.254
23:14 1019 30.09 848 25.04 6 42.7 79 2.6 36.7 6.377 0.251
23:15 1019 30.09 848 25.04 5.9 42.6 79 2.5 36.5 6.32 0.249
23:16 1019 30.09 848 25.04 5.9 42.6 79 2.5 36.5 6.315 0.249
23:17 1019 30.09 848 25.04 5.9 42.7 79 2.5 36.6 6.32 0.249
23:18 1019 30.09 848 25.04 6 42.8 78 2.5 36.5 6.343 0.25
23:19 1019 30.09 848 25.04 6.1 42.9 77 2.4 36.2 6.434 0.253
23:20 1019 30.09 848 25.04 6.2 43.1 76 2.4 36.3 6.548 0.258
23:21 1019 30.09 848 25.04 6.3 43.3 77 2.5 36.4 6.627 0.261
23:22 1019 30.09 848 25.04 6.3 43.3 77 2.5 36.5 6.645 0.262
23:23 1019 30.09 848 25.04 6.2 43.2 78 2.6 36.7 6.623 0.261
23:24 1019 30.09 848 25.04 6.1 43 78 2.5 36.5 6.533 0.257
23:25 1019 30.09 848 25.04 6 42.8 78 2.5 36.4 6.443 0.254
23:26 1019 30.09 848 25.04 6 42.8 78 2.5 36.6 6.409 0.252
23:27 1019 30.09 848 25.04 5.9 42.6 79 2.6 36.6 6.336 0.249
23:28 1019 30.09 848 25.04 5.8 42.4 80 2.6 36.7 6.222 0.245
23:29 1019 30.09 848 25.04 5.7 42.2 81 2.6 36.7 6.12 0.241
23:30 1019 30.09 848 25.04 5.6 42 81 2.6 36.8 6.012 0.237
23:31 1019 30.09 848 25.04 5.4 41.8 82 2.6 36.7 5.889 0.232
23:32 1019 30.09 848 25.04 5.4 41.7 82 2.5 36.5 5.838 0.23
23:33 1019 30.09 848 25.04 5.4 41.7 81 2.4 36.4 5.787 0.228
23:34 1019 30.09 848 25.04 5.4 41.7 81 2.4 36.4 5.775 0.227
23:35 1019 30.09 848 25.04 5.3 41.6 81 2.4 36.3 5.718 0.225
23:36 1019 30.09 848 25.04 5.3 41.5 81 2.3 36.2 5.69 0.224
23:37 1019 30.09 848 25.04 5.1 41.3 82 2.3 36.1 5.601 0.221
23:38 1019 30.09 848 25.04 5.1 41.2 82 2.3 36.1 5.544 0.218
23:39 1019 30.09 848 25.04 5 41 82 2.2 36 5.453 0.215
23:40 1019 30.09 848 25.04 4.9 40.8 82 2.2 35.9 5.335 0.21
23:41 1019 30.09 848 25.04 4.8 40.6 82 2 35.7 5.239 0.206
23:42 1019 30.09 848 25.04 4.8 40.6 82 2 35.5 5.171 0.204
23:43 1019 30.09 848 25.04 4.8 40.6 82 2 35.6 5.2 0.205
23:44 1019 30.09 848 25.04 4.9 40.8 82 2 35.6 5.206 0.205
23:45 1019 30.09 848 25.04 4.8 40.7 82 1.9 35.5 5.206 0.205
23:46 1019 30.09 848 25.04 4.9 40.7 82 2 35.6 5.189 0.204
23:47 1019 30.09 848 25.04 4.8 40.6 82 1.9 35.5 5.212 0.205
23:48 1019 30.09 848 25.04 4.9 40.7 81 2 35.5 5.184 0.204
23:49 1019 30.09 848 25.04 4.9 40.8 81 2 35.6 5.241 0.206
23:50 1019 30.09 848 25.04 4.9 40.8 82 2.1 35.7 5.269 0.207
23:51 1019 30.09 848 25.04 5 40.9 82 2.2 35.9 5.314 0.209
23:52 1019 30.09 848 25.04 5 41 82 2.2 36 5.388 0.212
23:53 1019 30.09 848 25.04 5.1 41.2 82 2.3 36.2 5.512 0.217
23:54 1019 30.09 848 25.04 5.3 41.5 81 2.3 36.2 5.637 0.222
23:55 1019 30.09 848 25.04 5.4 41.7 81 2.4 36.4 5.756 0.227
23:56 1019 30.09 848 25.04 5.5 41.9 81 2.5 36.4 5.852 0.23
23:57 1019 30.09 848 25.04 5.6 42 80 2.5 36.4 5.954 0.234
23:58 1019 30.09 849 25.07 5.6 42.1 80 2.5 36.5 5.988 0.236
23:59 1019 30.09 849 25.07 5.6 42.2 80 2.6 36.6 6.028 0.237
24:00 1019 30.09 849 25.07 5.7 42.2 80 2.5 36.5 6.028 0.237